UAE59 OMDB-EDDH
Flight info
| Callsign | UAE59 |
|---|---|
| Flight time | 8h 3m |
| Altitude | 38000 |
| Route | ANVIX L223 TARDI N629 BOTAM Y855 LAKLU Q204 NALKI G652 TOKRA DCT ALROK DCT BOSOB DCT ITRUX Y511 PMA Z712 WEJ L677 GESON Q777 RASDA DCT OTHON DCT VAXOS DCT RDS UL609 MES DCT EVIVI L863 OKANA DCT BABIT DCT ARSIN DCT DITIS DCT KILNU DCT ABGUS DCT DIRBO T902 RARUP RARUP6A |
| Aircraft | B77W/H-SDE1E2E3FGHIJ2J3J4J5M1RWXY/LB1D1 |
Departure
| Time | 2026-05-06 05:19 |
|---|---|
| Airport | Dubai International Airport (OMDB) |
Arrival
| Time | 2026-05-06 13:22 |
|---|---|
| Airport | Hamburg Helmut Schmidt Airport (EDDH) |
| Time | Latitude | Longitude | Altitude | Speed | Heading |
|---|---|---|---|---|---|
| 2026-05-06 04:48 | 25.25241 | 55.35650 | 76 ft | 0 kts | 211° |
| 2026-05-06 05:03 | 25.25250 | 55.35655 | 76 ft | 2 kts | 211° |
| 2026-05-06 05:03 | 25.25262 | 55.35664 | 76 ft | 1 kts | 211° |
| 2026-05-06 05:03 | 25.25270 | 55.35669 | 76 ft | 2 kts | 207° |
| 2026-05-06 05:04 | 25.25284 | 55.35675 | 76 ft | 2 kts | 191° |
| 2026-05-06 05:04 | 25.25299 | 55.35677 | 76 ft | 2 kts | 178° |
| 2026-05-06 05:04 | 25.25314 | 55.35675 | 76 ft | 2 kts | 165° |
| 2026-05-06 05:04 | 25.25328 | 55.35669 | 76 ft | 2 kts | 152° |
| 2026-05-06 05:05 | 25.25341 | 55.35660 | 76 ft | 2 kts | 139° |
| 2026-05-06 05:05 | 25.25351 | 55.35649 | 76 ft | 2 kts | 127° |
| 2026-05-06 05:05 | 25.25355 | 55.35641 | 76 ft | 0 kts | 121° |
| 2026-05-06 05:09 | 25.25350 | 55.35651 | 76 ft | 3 kts | 121° |
| 2026-05-06 05:09 | 25.25329 | 55.35690 | 76 ft | 8 kts | 121° |
| 2026-05-06 05:09 | 25.25300 | 55.35743 | 76 ft | 8 kts | 117° |
| 2026-05-06 05:09 | 25.25288 | 55.35802 | 76 ft | 7 kts | 86° |
| 2026-05-06 05:10 | 25.25304 | 55.35867 | 76 ft | 9 kts | 79° |
| 2026-05-06 05:10 | 25.25288 | 55.35943 | 76 ft | 11 kts | 118° |
| 2026-05-06 05:10 | 25.25246 | 55.36022 | 76 ft | 12 kts | 121° |
| 2026-05-06 05:10 | 25.25197 | 55.36107 | 76 ft | 12 kts | 122° |
| 2026-05-06 05:11 | 25.25146 | 55.36200 | 76 ft | 16 kts | 121° |
| 2026-05-06 05:11 | 25.25089 | 55.36301 | 76 ft | 14 kts | 122° |
| 2026-05-06 05:11 | 25.25041 | 55.36388 | 76 ft | 12 kts | 120° |
| 2026-05-06 05:11 | 25.25002 | 55.36462 | 76 ft | 10 kts | 121° |
| 2026-05-06 05:12 | 25.24963 | 55.36530 | 76 ft | 10 kts | 122° |
| 2026-05-06 05:12 | 25.24923 | 55.36602 | 76 ft | 11 kts | 120° |
| 2026-05-06 05:12 | 25.24885 | 55.36686 | 76 ft | 12 kts | 110° |
| 2026-05-06 05:12 | 25.24864 | 55.36771 | 76 ft | 10 kts | 101° |
| 2026-05-06 05:13 | 25.24846 | 55.36845 | 76 ft | 9 kts | 111° |
| 2026-05-06 05:13 | 25.24819 | 55.36909 | 76 ft | 8 kts | 114° |
| 2026-05-06 05:13 | 25.24818 | 55.36969 | 76 ft | 7 kts | 58° |
| 2026-05-06 05:13 | 25.24869 | 55.37014 | 76 ft | 11 kts | 34° |
| 2026-05-06 05:14 | 25.24943 | 55.37068 | 76 ft | 14 kts | 32° |
| 2026-05-06 05:14 | 25.25028 | 55.37125 | 76 ft | 13 kts | 30° |
| 2026-05-06 05:14 | 25.25057 | 55.37200 | 76 ft | 11 kts | 112° |
| 2026-05-06 05:14 | 25.25018 | 55.37278 | 76 ft | 12 kts | 121° |
| 2026-05-06 05:15 | 25.24972 | 55.37360 | 76 ft | 12 kts | 121° |
| 2026-05-06 05:15 | 25.24926 | 55.37441 | 76 ft | 12 kts | 122° |
| 2026-05-06 05:15 | 25.24880 | 55.37524 | 76 ft | 12 kts | 121° |
| 2026-05-06 05:15 | 25.24832 | 55.37611 | 76 ft | 13 kts | 122° |
| 2026-05-06 05:16 | 25.24786 | 55.37694 | 76 ft | 11 kts | 121° |
| 2026-05-06 05:16 | 25.24746 | 55.37768 | 76 ft | 10 kts | 121° |
| 2026-05-06 05:16 | 25.24710 | 55.37833 | 76 ft | 9 kts | 122° |
| 2026-05-06 05:16 | 25.24675 | 55.37894 | 76 ft | 9 kts | 117° |
| 2026-05-06 05:17 | 25.24680 | 55.37954 | 76 ft | 7 kts | 47° |
| 2026-05-06 05:17 | 25.24717 | 55.37986 | 76 ft | 5 kts | 32° |
| 2026-05-06 05:17 | 25.24755 | 55.38010 | 76 ft | 7 kts | 26° |
| 2026-05-06 05:17 | 25.24813 | 55.38006 | 76 ft | 8 kts | 315° |
| 2026-05-06 05:18 | 25.24870 | 55.37909 | 76 ft | 35 kts | 301° |
| 2026-05-06 05:18 | 25.25120 | 55.37460 | 76 ft | 101 kts | 301° |
| 2026-05-06 05:18 | 25.25598 | 55.36597 | 76 ft | 161 kts | 301° |
| 2026-05-06 05:18 | 25.26273 | 55.35386 | 199 ft | 200 kts | 301° |
| 2026-05-06 05:19 | 25.27005 | 55.34065 | 818 ft | 205 kts | 301° |
| 2026-05-06 05:19 | 25.27732 | 55.32750 | 1572 ft | 203 kts | 301° |
| 2026-05-06 05:19 | 25.28491 | 55.31383 | 2048 ft | 210 kts | 300° |
| 2026-05-06 05:19 | 25.29027 | 55.29906 | 2584 ft | 210 kts | 277° |
| 2026-05-06 05:20 | 25.28990 | 55.28321 | 3120 ft | 210 kts | 253° |
| 2026-05-06 05:20 | 25.28450 | 55.26824 | 3663 ft | 210 kts | 243° |
| 2026-05-06 05:20 | 25.27819 | 55.25373 | 4167 ft | 213 kts | 244° |
| 2026-05-06 05:20 | 25.27184 | 55.23890 | 4697 ft | 215 kts | 244° |
| 2026-05-06 05:21 | 25.26550 | 55.22398 | 5196 ft | 217 kts | 245° |
| 2026-05-06 05:21 | 25.25904 | 55.20874 | 5584 ft | 227 kts | 245° |
| 2026-05-06 05:21 | 25.25205 | 55.19235 | 5862 ft | 243 kts | 243° |
| 2026-05-06 05:21 | 25.24147 | 55.17748 | 6216 ft | 254 kts | 216° |
| 2026-05-06 05:22 | 25.22562 | 55.16887 | 6698 ft | 261 kts | 191° |
| 2026-05-06 05:22 | 25.20716 | 55.16785 | 7140 ft | 268 kts | 173° |
| 2026-05-06 05:22 | 25.18954 | 55.17374 | 7702 ft | 268 kts | 146° |
| 2026-05-06 05:22 | 25.17554 | 55.18778 | 8079 ft | 278 kts | 121° |
| 2026-05-06 05:23 | 25.16631 | 55.20718 | 8453 ft | 289 kts | 113° |
| 2026-05-06 05:23 | 25.15760 | 55.22718 | 9114 ft | 292 kts | 115° |
| 2026-05-06 05:23 | 25.13881 | 55.26725 | 10453 ft | 297 kts | 116° |
| 2026-05-06 05:24 | 25.12917 | 55.28731 | 11149 ft | 299 kts | 116° |
| 2026-05-06 05:24 | 25.11952 | 55.30736 | 11848 ft | 299 kts | 116° |
| 2026-05-06 05:24 | 25.10972 | 55.32772 | 12518 ft | 301 kts | 116° |
| 2026-05-06 05:24 | 25.10041 | 55.34817 | 13157 ft | 302 kts | 112° |
| 2026-05-06 05:25 | 25.09190 | 55.36946 | 13790 ft | 304 kts | 112° |
| 2026-05-06 05:25 | 25.08336 | 55.39072 | 14395 ft | 308 kts | 112° |
| 2026-05-06 05:25 | 25.07455 | 55.41225 | 14980 ft | 312 kts | 112° |
| 2026-05-06 05:25 | 25.06571 | 55.43440 | 15432 ft | 320 kts | 111° |
| 2026-05-06 05:26 | 25.05691 | 55.45756 | 15668 ft | 336 kts | 111° |
| 2026-05-06 05:26 | 25.04763 | 55.48191 | 15885 ft | 352 kts | 111° |
| 2026-05-06 05:26 | 25.03791 | 55.50722 | 16195 ft | 367 kts | 111° |
| 2026-05-06 05:26 | 25.02772 | 55.53367 | 16453 ft | 382 kts | 111° |
| 2026-05-06 05:27 | 25.01638 | 55.56031 | 16717 ft | 397 kts | 118° |
| 2026-05-06 05:27 | 25.00220 | 55.58702 | 17005 ft | 409 kts | 119° |
| 2026-05-06 05:27 | 24.98736 | 55.61442 | 17512 ft | 416 kts | 120° |
| 2026-05-06 05:27 | 24.97261 | 55.64165 | 18082 ft | 420 kts | 120° |
| 2026-05-06 05:28 | 24.95754 | 55.66947 | 18605 ft | 425 kts | 120° |
| 2026-05-06 05:28 | 24.94227 | 55.69729 | 19112 ft | 430 kts | 123° |
| 2026-05-06 05:28 | 24.92490 | 55.72436 | 19649 ft | 435 kts | 126° |
| 2026-05-06 05:28 | 24.90688 | 55.75151 | 20158 ft | 440 kts | 126° |
| 2026-05-06 05:29 | 24.88869 | 55.77888 | 20684 ft | 444 kts | 126° |
| 2026-05-06 05:29 | 24.87052 | 55.80625 | 21204 ft | 449 kts | 126° |
| 2026-05-06 05:29 | 24.85193 | 55.83424 | 21689 ft | 453 kts | 126° |
| 2026-05-06 05:29 | 24.83332 | 55.86216 | 22171 ft | 457 kts | 127° |
| 2026-05-06 05:30 | 24.81425 | 55.89032 | 22633 ft | 462 kts | 127° |
| 2026-05-06 05:30 | 24.79492 | 55.91880 | 23095 ft | 466 kts | 127° |
| 2026-05-06 05:30 | 24.77387 | 55.94596 | 23517 ft | 469 kts | 135° |
| 2026-05-06 05:30 | 24.75015 | 55.97094 | 23923 ft | 474 kts | 137° |
| 2026-05-06 05:31 | 24.72613 | 55.99559 | 24339 ft | 478 kts | 138° |
| 2026-05-06 05:31 | 24.70165 | 56.02069 | 24786 ft | 481 kts | 138° |
| 2026-05-06 05:31 | 24.67746 | 56.04551 | 25204 ft | 484 kts | 138° |
| 2026-05-06 05:31 | 24.65263 | 56.07103 | 25619 ft | 488 kts | 138° |
| 2026-05-06 05:32 | 24.62763 | 56.09673 | 26025 ft | 492 kts | 138° |
| 2026-05-06 05:32 | 24.60269 | 56.12237 | 26442 ft | 495 kts | 138° |
| 2026-05-06 05:32 | 24.57770 | 56.14814 | 26846 ft | 498 kts | 136° |
| 2026-05-06 05:32 | 24.55407 | 56.17637 | 27235 ft | 502 kts | 132° |
| 2026-05-06 05:33 | 24.53136 | 56.20526 | 27606 ft | 506 kts | 131° |
| 2026-05-06 05:33 | 24.50817 | 56.23487 | 28000 ft | 509 kts | 132° |
| 2026-05-06 05:33 | 24.48504 | 56.26438 | 28380 ft | 512 kts | 132° |
| 2026-05-06 05:33 | 24.46191 | 56.29385 | 28732 ft | 516 kts | 132° |
| 2026-05-06 05:34 | 24.43837 | 56.32381 | 29082 ft | 519 kts | 132° |
| 2026-05-06 05:34 | 24.41490 | 56.35366 | 29511 ft | 520 kts | 132° |
| 2026-05-06 05:34 | 24.39118 | 56.38382 | 30111 ft | 518 kts | 132° |
| 2026-05-06 05:34 | 24.36801 | 56.41327 | 30764 ft | 514 kts | 133° |
| 2026-05-06 05:35 | 24.34473 | 56.44281 | 31327 ft | 511 kts | 133° |
| 2026-05-06 05:35 | 24.32150 | 56.47226 | 31769 ft | 511 kts | 133° |
| 2026-05-06 05:35 | 24.29817 | 56.50181 | 32183 ft | 511 kts | 133° |
| 2026-05-06 05:35 | 24.27608 | 56.53234 | 32588 ft | 512 kts | 128° |
| 2026-05-06 05:36 | 24.25551 | 56.56387 | 32995 ft | 512 kts | 127° |
| 2026-05-06 05:36 | 24.23430 | 56.59647 | 33022 ft | 514 kts | 127° |
| 2026-05-06 05:36 | 24.19255 | 56.66018 | 33022 ft | 510 kts | 128° |
| 2026-05-06 05:37 | 24.15069 | 56.72357 | 33015 ft | 511 kts | 128° |
| 2026-05-06 05:37 | 24.10889 | 56.78657 | 33011 ft | 510 kts | 128° |
| 2026-05-06 05:38 | 24.06393 | 56.84618 | 33013 ft | 505 kts | 140° |
| 2026-05-06 05:38 | 24.00691 | 56.89010 | 33009 ft | 498 kts | 157° |
| 2026-05-06 05:39 | 23.94256 | 56.91504 | 33031 ft | 491 kts | 169° |
| 2026-05-06 05:39 | 23.87561 | 56.93324 | 33048 ft | 491 kts | 169° |
| 2026-05-06 05:40 | 23.80919 | 56.95112 | 33063 ft | 491 kts | 169° |
| 2026-05-06 05:40 | 23.74269 | 56.96899 | 33073 ft | 491 kts | 169° |
| 2026-05-06 05:41 | 23.67642 | 56.98675 | 33095 ft | 491 kts | 169° |
| 2026-05-06 05:41 | 23.60989 | 57.00457 | 33121 ft | 491 kts | 169° |
| 2026-05-06 05:42 | 23.54322 | 57.02241 | 33159 ft | 490 kts | 169° |
| 2026-05-06 05:42 | 23.47687 | 57.04013 | 33184 ft | 491 kts | 169° |
| 2026-05-06 05:43 | 23.40991 | 57.05709 | 33222 ft | 488 kts | 175° |
| 2026-05-06 05:43 | 23.34278 | 57.05788 | 33267 ft | 480 kts | 192° |
| 2026-05-06 05:44 | 23.27742 | 57.04359 | 33296 ft | 477 kts | 195° |
| 2026-05-06 05:44 | 23.21223 | 57.02824 | 33294 ft | 477 kts | 195° |
| 2026-05-06 05:45 | 23.14727 | 57.01295 | 33239 ft | 477 kts | 195° |
| 2026-05-06 05:45 | 23.08219 | 56.99764 | 33209 ft | 477 kts | 195° |
| 2026-05-06 05:46 | 23.01727 | 56.98239 | 33176 ft | 478 kts | 195° |
| 2026-05-06 05:46 | 22.95231 | 56.96716 | 33168 ft | 477 kts | 195° |
| 2026-05-06 05:47 | 22.88825 | 56.94833 | 33171 ft | 474 kts | 206° |
| 2026-05-06 05:47 | 22.83230 | 56.91205 | 33163 ft | 468 kts | 223° |
| 2026-05-06 05:48 | 22.78910 | 56.86018 | 33154 ft | 464 kts | 239° |
| 2026-05-06 05:48 | 22.75805 | 56.79905 | 33127 ft | 462 kts | 244° |
| 2026-05-06 05:49 | 22.72834 | 56.73721 | 33101 ft | 462 kts | 244° |
| 2026-05-06 05:49 | 22.69887 | 56.67596 | 33087 ft | 463 kts | 244° |
| 2026-05-06 05:50 | 22.66910 | 56.61420 | 33077 ft | 462 kts | 244° |
| 2026-05-06 05:50 | 22.63940 | 56.55265 | 33071 ft | 463 kts | 244° |
| 2026-05-06 05:51 | 22.60958 | 56.49095 | 33066 ft | 463 kts | 244° |
| 2026-05-06 05:51 | 22.57963 | 56.42907 | 33056 ft | 463 kts | 244° |
| 2026-05-06 05:52 | 22.54968 | 56.36723 | 33044 ft | 464 kts | 244° |
| 2026-05-06 05:52 | 22.51980 | 56.30555 | 33044 ft | 464 kts | 244° |
| 2026-05-06 05:53 | 22.48998 | 56.24403 | 33043 ft | 464 kts | 244° |
| 2026-05-06 05:53 | 22.45987 | 56.18201 | 33034 ft | 464 kts | 244° |
| 2026-05-06 05:54 | 22.42990 | 56.12034 | 33029 ft | 464 kts | 244° |
| 2026-05-06 05:54 | 22.40003 | 56.05897 | 33023 ft | 464 kts | 244° |
| 2026-05-06 05:55 | 22.36980 | 55.99697 | 33022 ft | 465 kts | 243° |
| 2026-05-06 05:55 | 22.35479 | 55.96636 | 32887 ft | 466 kts | 243° |
| 2026-05-06 05:55 | 22.33971 | 55.93567 | 32890 ft | 464 kts | 243° |
| 2026-05-06 05:56 | 22.30946 | 55.87414 | 32883 ft | 464 kts | 243° |
| 2026-05-06 05:56 | 22.27907 | 55.81237 | 32879 ft | 464 kts | 243° |
| 2026-05-06 05:57 | 22.24887 | 55.75101 | 32875 ft | 465 kts | 243° |
| 2026-05-06 05:57 | 22.21872 | 55.68957 | 32866 ft | 464 kts | 243° |
| 2026-05-06 05:58 | 22.18840 | 55.62784 | 32869 ft | 465 kts | 243° |
| 2026-05-06 05:58 | 22.16160 | 55.56437 | 32861 ft | 464 kts | 255° |
| 2026-05-06 05:59 | 22.15142 | 55.49645 | 32865 ft | 462 kts | 265° |
| 2026-05-06 05:59 | 22.14578 | 55.42737 | 32853 ft | 463 kts | 265° |
| 2026-05-06 06:00 | 22.14012 | 55.35819 | 32852 ft | 463 kts | 265° |
| 2026-05-06 06:00 | 22.13442 | 55.28892 | 32848 ft | 463 kts | 265° |
| 2026-05-06 06:01 | 22.12870 | 55.21986 | 32848 ft | 463 kts | 265° |
| 2026-05-06 06:01 | 22.12294 | 55.15084 | 32850 ft | 464 kts | 264° |
| 2026-05-06 06:02 | 22.11718 | 55.08210 | 32851 ft | 463 kts | 264° |
| 2026-05-06 06:02 | 22.11134 | 55.01266 | 32854 ft | 463 kts | 264° |
| 2026-05-06 06:03 | 22.10551 | 54.94376 | 32855 ft | 464 kts | 264° |
| 2026-05-06 06:03 | 22.09963 | 54.87470 | 32852 ft | 464 kts | 264° |
| 2026-05-06 06:04 | 22.09372 | 54.80562 | 32848 ft | 464 kts | 264° |
| 2026-05-06 06:04 | 22.08780 | 54.73671 | 32843 ft | 464 kts | 264° |
| 2026-05-06 06:05 | 22.08182 | 54.66744 | 32838 ft | 463 kts | 264° |
| 2026-05-06 06:05 | 22.07584 | 54.59845 | 32840 ft | 464 kts | 264° |
| 2026-05-06 06:06 | 22.06982 | 54.52951 | 32840 ft | 464 kts | 264° |
| 2026-05-06 06:06 | 22.06378 | 54.46052 | 32841 ft | 464 kts | 264° |
| 2026-05-06 06:07 | 22.05769 | 54.39137 | 32841 ft | 464 kts | 264° |
| 2026-05-06 06:07 | 22.05155 | 54.32199 | 32851 ft | 464 kts | 264° |
| 2026-05-06 06:08 | 22.04541 | 54.25295 | 32851 ft | 465 kts | 264° |
| 2026-05-06 06:08 | 22.03922 | 54.18366 | 32849 ft | 465 kts | 264° |
| 2026-05-06 06:09 | 22.03305 | 54.11498 | 32845 ft | 464 kts | 264° |
| 2026-05-06 06:09 | 22.02679 | 54.04551 | 32850 ft | 465 kts | 264° |
| 2026-05-06 06:10 | 22.02053 | 53.97647 | 32839 ft | 464 kts | 264° |
| 2026-05-06 06:10 | 22.01425 | 53.90754 | 32840 ft | 465 kts | 264° |
| 2026-05-06 06:11 | 22.00790 | 53.83811 | 32845 ft | 464 kts | 264° |
| 2026-05-06 06:11 | 22.00159 | 53.76954 | 32835 ft | 464 kts | 264° |
| 2026-05-06 06:12 | 21.99522 | 53.70054 | 32832 ft | 463 kts | 264° |
| 2026-05-06 06:12 | 21.98882 | 53.63162 | 32838 ft | 465 kts | 264° |
| 2026-05-06 06:13 | 21.98236 | 53.56220 | 32837 ft | 463 kts | 264° |
| 2026-05-06 06:13 | 21.97591 | 53.49334 | 32834 ft | 463 kts | 264° |
| 2026-05-06 06:14 | 21.96940 | 53.42410 | 32835 ft | 464 kts | 264° |
| 2026-05-06 06:14 | 21.96288 | 53.35504 | 32829 ft | 463 kts | 264° |
| 2026-05-06 06:15 | 21.95635 | 53.28625 | 32836 ft | 463 kts | 263° |
| 2026-05-06 06:15 | 21.94979 | 53.21742 | 32834 ft | 464 kts | 263° |
| 2026-05-06 06:16 | 21.94323 | 53.14885 | 32831 ft | 462 kts | 263° |
| 2026-05-06 06:16 | 21.93660 | 53.07996 | 32834 ft | 463 kts | 263° |
| 2026-05-06 06:17 | 21.92995 | 53.01109 | 32827 ft | 462 kts | 263° |
| 2026-05-06 06:17 | 21.92325 | 52.94201 | 32827 ft | 463 kts | 263° |
| 2026-05-06 06:18 | 21.91656 | 52.87342 | 32828 ft | 463 kts | 263° |
| 2026-05-06 06:18 | 21.90983 | 52.80466 | 32830 ft | 462 kts | 263° |
| 2026-05-06 06:19 | 21.90309 | 52.73595 | 32823 ft | 462 kts | 264° |
| 2026-05-06 06:19 | 21.90648 | 52.66724 | 32825 ft | 465 kts | 279° |
| 2026-05-06 06:20 | 21.91920 | 52.59880 | 32828 ft | 465 kts | 280° |
| 2026-05-06 06:20 | 21.93185 | 52.53096 | 32829 ft | 464 kts | 280° |
| 2026-05-06 06:21 | 21.94443 | 52.46291 | 32830 ft | 464 kts | 280° |
| 2026-05-06 06:21 | 21.95695 | 52.39478 | 32831 ft | 465 kts | 279° |
| 2026-05-06 06:22 | 21.96947 | 52.32634 | 32836 ft | 464 kts | 279° |
| 2026-05-06 06:22 | 21.98192 | 52.25811 | 32837 ft | 465 kts | 279° |
| 2026-05-06 06:23 | 21.99432 | 52.18992 | 32836 ft | 464 kts | 279° |
| 2026-05-06 06:23 | 22.00664 | 52.12196 | 32835 ft | 465 kts | 279° |
| 2026-05-06 06:24 | 22.01906 | 52.05329 | 32834 ft | 465 kts | 279° |
| 2026-05-06 06:24 | 22.03130 | 51.98545 | 32833 ft | 465 kts | 279° |
| 2026-05-06 06:25 | 22.04354 | 51.91746 | 32830 ft | 464 kts | 279° |
| 2026-05-06 06:26 | 22.06195 | 51.81486 | 32828 ft | 464 kts | 279° |
| 2026-05-06 06:26 | 22.07415 | 51.74665 | 32827 ft | 464 kts | 279° |
| 2026-05-06 06:27 | 22.08627 | 51.67875 | 32826 ft | 465 kts | 279° |
| 2026-05-06 06:27 | 22.09849 | 51.61009 | 32825 ft | 464 kts | 279° |
| 2026-05-06 06:28 | 22.11063 | 51.54167 | 32826 ft | 464 kts | 279° |
| 2026-05-06 06:28 | 22.12270 | 51.47356 | 32827 ft | 464 kts | 279° |
| 2026-05-06 06:29 | 22.13478 | 51.40516 | 32826 ft | 464 kts | 279° |
| 2026-05-06 06:29 | 22.14681 | 51.33690 | 32832 ft | 464 kts | 278° |
| 2026-05-06 06:30 | 22.15883 | 51.26848 | 32835 ft | 464 kts | 278° |
| 2026-05-06 06:30 | 22.17080 | 51.20021 | 32837 ft | 464 kts | 278° |
| 2026-05-06 06:31 | 22.18278 | 51.13167 | 32834 ft | 464 kts | 278° |
| 2026-05-06 06:31 | 22.19469 | 51.06340 | 32834 ft | 465 kts | 278° |
| 2026-05-06 06:32 | 22.20651 | 50.99546 | 32834 ft | 463 kts | 278° |
| 2026-05-06 06:32 | 22.21841 | 50.92691 | 32835 ft | 465 kts | 278° |
| 2026-05-06 06:33 | 22.23024 | 50.85853 | 32839 ft | 463 kts | 278° |
| 2026-05-06 06:33 | 22.24207 | 50.78997 | 32842 ft | 464 kts | 278° |
| 2026-05-06 06:34 | 22.25386 | 50.72149 | 32844 ft | 463 kts | 278° |
| 2026-05-06 06:34 | 22.26567 | 50.65275 | 32847 ft | 463 kts | 278° |
| 2026-05-06 06:35 | 22.27739 | 50.58434 | 32848 ft | 463 kts | 278° |
| 2026-05-06 06:35 | 22.28902 | 50.51621 | 32849 ft | 464 kts | 278° |
| 2026-05-06 06:36 | 22.30073 | 50.44753 | 32850 ft | 463 kts | 278° |
| 2026-05-06 06:36 | 22.31233 | 50.37928 | 32852 ft | 463 kts | 278° |
| 2026-05-06 06:37 | 22.32391 | 50.31095 | 32860 ft | 463 kts | 278° |
| 2026-05-06 06:37 | 22.33538 | 50.24304 | 32862 ft | 462 kts | 278° |
| 2026-05-06 06:38 | 22.34697 | 50.17432 | 32864 ft | 462 kts | 278° |
| 2026-05-06 06:38 | 22.35840 | 50.10634 | 32865 ft | 463 kts | 278° |
| 2026-05-06 06:39 | 22.36986 | 50.03804 | 32865 ft | 462 kts | 278° |
| 2026-05-06 06:39 | 22.38131 | 49.96955 | 32866 ft | 462 kts | 278° |
| 2026-05-06 06:40 | 22.39272 | 49.90117 | 32862 ft | 462 kts | 278° |
| 2026-05-06 06:40 | 22.40407 | 49.83293 | 32862 ft | 462 kts | 278° |
| 2026-05-06 06:41 | 22.41541 | 49.76459 | 32857 ft | 462 kts | 278° |
| 2026-05-06 06:41 | 22.42666 | 49.69660 | 32857 ft | 462 kts | 278° |
| 2026-05-06 06:42 | 22.43788 | 49.62860 | 32856 ft | 461 kts | 278° |
| 2026-05-06 06:42 | 22.44915 | 49.56010 | 32856 ft | 462 kts | 278° |
| 2026-05-06 06:43 | 22.46034 | 49.49197 | 32854 ft | 462 kts | 278° |
| 2026-05-06 06:43 | 22.47152 | 49.42368 | 32858 ft | 462 kts | 278° |
| 2026-05-06 06:44 | 22.48265 | 49.35548 | 32858 ft | 461 kts | 278° |
| 2026-05-06 06:44 | 22.49375 | 49.28731 | 32865 ft | 462 kts | 277° |
| 2026-05-06 06:45 | 22.50476 | 49.21949 | 32872 ft | 461 kts | 277° |
| 2026-05-06 06:45 | 22.51580 | 49.15126 | 32869 ft | 461 kts | 277° |
| 2026-05-06 06:46 | 22.52684 | 49.08287 | 32867 ft | 462 kts | 277° |
| 2026-05-06 06:46 | 22.53778 | 49.01495 | 32870 ft | 460 kts | 277° |
| 2026-05-06 06:47 | 22.54874 | 48.94664 | 32873 ft | 461 kts | 277° |
| 2026-05-06 06:47 | 22.55961 | 48.87880 | 32873 ft | 461 kts | 277° |
| 2026-05-06 06:48 | 22.57052 | 48.81044 | 32873 ft | 461 kts | 277° |
| 2026-05-06 06:48 | 22.58138 | 48.74220 | 32879 ft | 461 kts | 277° |
| 2026-05-06 06:49 | 22.59221 | 48.67402 | 32882 ft | 461 kts | 277° |
| 2026-05-06 06:49 | 22.60296 | 48.60611 | 32886 ft | 460 kts | 277° |
| 2026-05-06 06:50 | 22.61377 | 48.53764 | 32887 ft | 460 kts | 277° |
| 2026-05-06 06:50 | 22.62449 | 48.46950 | 32896 ft | 460 kts | 277° |
| 2026-05-06 06:51 | 22.63518 | 48.40143 | 32894 ft | 459 kts | 277° |
| 2026-05-06 06:51 | 22.64584 | 48.33334 | 32899 ft | 460 kts | 277° |
| 2026-05-06 06:52 | 22.65649 | 48.26512 | 32907 ft | 459 kts | 277° |
| 2026-05-06 06:52 | 22.66704 | 48.19732 | 32901 ft | 459 kts | 277° |
| 2026-05-06 06:53 | 22.67763 | 48.12909 | 32903 ft | 459 kts | 277° |
| 2026-05-06 06:53 | 22.68820 | 48.06078 | 32908 ft | 458 kts | 276° |
| 2026-05-06 06:54 | 22.69552 | 47.99278 | 32905 ft | 457 kts | 272° |
| 2026-05-06 06:54 | 22.70126 | 47.92452 | 32911 ft | 456 kts | 272° |
| 2026-05-06 06:55 | 22.70698 | 47.85606 | 32916 ft | 457 kts | 272° |
| 2026-05-06 06:55 | 22.71267 | 47.78773 | 32920 ft | 456 kts | 272° |
| 2026-05-06 06:56 | 22.71834 | 47.71925 | 32925 ft | 457 kts | 272° |
| 2026-05-06 06:56 | 22.72401 | 47.65048 | 32928 ft | 456 kts | 272° |
| 2026-05-06 06:57 | 22.72960 | 47.58226 | 32934 ft | 457 kts | 272° |
| 2026-05-06 06:57 | 22.73517 | 47.51391 | 32937 ft | 456 kts | 272° |
| 2026-05-06 06:58 | 22.74073 | 47.44528 | 32942 ft | 456 kts | 272° |
| 2026-05-06 06:58 | 22.74626 | 47.37671 | 32949 ft | 456 kts | 272° |
| 2026-05-06 06:59 | 22.75172 | 47.30859 | 32960 ft | 456 kts | 272° |
| 2026-05-06 06:59 | 22.75720 | 47.24001 | 32967 ft | 457 kts | 272° |
| 2026-05-06 07:00 | 22.76261 | 47.17186 | 32968 ft | 456 kts | 272° |
| 2026-05-06 07:00 | 22.76804 | 47.10354 | 32978 ft | 457 kts | 272° |
| 2026-05-06 07:01 | 22.77349 | 47.03489 | 32983 ft | 456 kts | 272° |
| 2026-05-06 07:01 | 22.77889 | 46.96633 | 32982 ft | 457 kts | 272° |
| 2026-05-06 07:02 | 22.78427 | 46.89775 | 32983 ft | 456 kts | 272° |
| 2026-05-06 07:02 | 22.78958 | 46.82969 | 32995 ft | 457 kts | 272° |
| 2026-05-06 07:03 | 22.79488 | 46.76128 | 32993 ft | 456 kts | 272° |
| 2026-05-06 07:03 | 22.80017 | 46.69265 | 33005 ft | 457 kts | 272° |
| 2026-05-06 07:04 | 22.80542 | 46.62421 | 33014 ft | 456 kts | 272° |
| 2026-05-06 07:04 | 22.81062 | 46.55605 | 33035 ft | 456 kts | 272° |
| 2026-05-06 07:05 | 22.81579 | 46.48775 | 33047 ft | 457 kts | 272° |
| 2026-05-06 07:05 | 22.82094 | 46.41949 | 33052 ft | 455 kts | 271° |
| 2026-05-06 07:06 | 22.82605 | 46.35104 | 33056 ft | 456 kts | 271° |
| 2026-05-06 07:06 | 22.83110 | 46.28279 | 33078 ft | 457 kts | 271° |
| 2026-05-06 07:07 | 22.83615 | 46.21430 | 33081 ft | 456 kts | 271° |
| 2026-05-06 07:07 | 22.84115 | 46.14608 | 33059 ft | 455 kts | 271° |
| 2026-05-06 07:08 | 22.84611 | 46.07784 | 33041 ft | 457 kts | 271° |
| 2026-05-06 07:08 | 22.85108 | 46.00927 | 33023 ft | 456 kts | 271° |
| 2026-05-06 07:09 | 22.85600 | 45.94087 | 33013 ft | 454 kts | 271° |
| 2026-05-06 07:09 | 22.86084 | 45.87315 | 33016 ft | 455 kts | 271° |
| 2026-05-06 07:10 | 22.86570 | 45.80476 | 33017 ft | 455 kts | 271° |
| 2026-05-06 07:10 | 22.87050 | 45.73685 | 33021 ft | 454 kts | 271° |
| 2026-05-06 07:11 | 22.87528 | 45.66876 | 33024 ft | 452 kts | 271° |
| 2026-05-06 07:11 | 22.88003 | 45.60068 | 33029 ft | 453 kts | 271° |
| 2026-05-06 07:12 | 22.88472 | 45.53298 | 33037 ft | 452 kts | 271° |
| 2026-05-06 07:12 | 22.88940 | 45.46506 | 33041 ft | 452 kts | 271° |
| 2026-05-06 07:13 | 22.89403 | 45.39756 | 33044 ft | 451 kts | 271° |
| 2026-05-06 07:13 | 22.89864 | 45.32974 | 33052 ft | 449 kts | 270° |
| 2026-05-06 07:14 | 22.90319 | 45.26244 | 33054 ft | 449 kts | 270° |
| 2026-05-06 07:14 | 22.90772 | 45.19523 | 33052 ft | 449 kts | 270° |
| 2026-05-06 07:15 | 22.91222 | 45.12773 | 33057 ft | 448 kts | 270° |
| 2026-05-06 07:15 | 22.91667 | 45.06070 | 33058 ft | 448 kts | 270° |
| 2026-05-06 07:16 | 22.92109 | 44.99356 | 33058 ft | 446 kts | 270° |
| 2026-05-06 07:16 | 22.92550 | 44.92601 | 33059 ft | 450 kts | 270° |
| 2026-05-06 07:17 | 22.92986 | 44.85887 | 33062 ft | 445 kts | 270° |
| 2026-05-06 07:17 | 22.93419 | 44.79183 | 33068 ft | 447 kts | 270° |
| 2026-05-06 07:18 | 22.93849 | 44.72473 | 33069 ft | 447 kts | 270° |
| 2026-05-06 07:18 | 22.94638 | 44.65782 | 33070 ft | 453 kts | 281° |
| 2026-05-06 07:19 | 22.96600 | 44.59236 | 33071 ft | 455 kts | 284° |
| 2026-05-06 07:19 | 22.98603 | 44.52770 | 33065 ft | 455 kts | 284° |
| 2026-05-06 07:20 | 23.00612 | 44.46266 | 33061 ft | 454 kts | 284° |
| 2026-05-06 07:20 | 23.02608 | 44.39787 | 33074 ft | 454 kts | 284° |
| 2026-05-06 07:21 | 23.04604 | 44.33295 | 33094 ft | 453 kts | 283° |
| 2026-05-06 07:21 | 23.06594 | 44.26812 | 33099 ft | 452 kts | 283° |
| 2026-05-06 07:22 | 23.08582 | 44.20321 | 33104 ft | 452 kts | 283° |
| 2026-05-06 07:22 | 23.10565 | 44.13840 | 33094 ft | 451 kts | 283° |
| 2026-05-06 07:23 | 23.12546 | 44.07346 | 33099 ft | 451 kts | 283° |
| 2026-05-06 07:23 | 23.14524 | 44.00858 | 33105 ft | 452 kts | 283° |
| 2026-05-06 07:24 | 23.16494 | 43.94386 | 33100 ft | 450 kts | 283° |
| 2026-05-06 07:24 | 23.18451 | 43.87947 | 33104 ft | 450 kts | 283° |
| 2026-05-06 07:25 | 23.20409 | 43.81492 | 33105 ft | 450 kts | 283° |
| 2026-05-06 07:25 | 23.22351 | 43.75078 | 33104 ft | 449 kts | 283° |
| 2026-05-06 07:26 | 23.24291 | 43.68662 | 33102 ft | 448 kts | 283° |
| 2026-05-06 07:26 | 23.26235 | 43.62220 | 33102 ft | 448 kts | 283° |
| 2026-05-06 07:27 | 23.28167 | 43.55809 | 33108 ft | 448 kts | 283° |
| 2026-05-06 07:27 | 23.30096 | 43.49401 | 33104 ft | 446 kts | 283° |
| 2026-05-06 07:28 | 23.32019 | 43.42999 | 33105 ft | 445 kts | 283° |
| 2026-05-06 07:28 | 23.34904 | 43.33376 | 33122 ft | 445 kts | 283° |
| 2026-05-06 07:29 | 23.36828 | 43.26946 | 33132 ft | 443 kts | 282° |
| 2026-05-06 07:29 | 23.38729 | 43.20583 | 33133 ft | 443 kts | 282° |
| 2026-05-06 07:30 | 23.40626 | 43.14218 | 33130 ft | 444 kts | 282° |
| 2026-05-06 07:30 | 23.42527 | 43.07824 | 33128 ft | 442 kts | 282° |
| 2026-05-06 07:31 | 23.44404 | 43.01490 | 33134 ft | 443 kts | 282° |
| 2026-05-06 07:31 | 23.46287 | 42.95131 | 33133 ft | 441 kts | 282° |
| 2026-05-06 07:32 | 23.48170 | 42.88759 | 33127 ft | 442 kts | 282° |
| 2026-05-06 07:32 | 23.50052 | 42.82380 | 33131 ft | 442 kts | 282° |
| 2026-05-06 07:33 | 23.51933 | 42.75996 | 33123 ft | 441 kts | 282° |
| 2026-05-06 07:33 | 23.53805 | 42.69642 | 33123 ft | 441 kts | 282° |
| 2026-05-06 07:34 | 23.55676 | 42.63285 | 33121 ft | 442 kts | 282° |
| 2026-05-06 07:34 | 23.57543 | 42.56931 | 33121 ft | 441 kts | 282° |
| 2026-05-06 07:35 | 23.59406 | 42.50579 | 33124 ft | 441 kts | 282° |
| 2026-05-06 07:35 | 23.61265 | 42.44233 | 33115 ft | 441 kts | 282° |
| 2026-05-06 07:36 | 23.63135 | 42.37835 | 33121 ft | 439 kts | 282° |
| 2026-05-06 07:36 | 23.64986 | 42.31495 | 33129 ft | 439 kts | 281° |
| 2026-05-06 07:37 | 23.66830 | 42.25158 | 33134 ft | 439 kts | 281° |
| 2026-05-06 07:37 | 23.68665 | 42.18828 | 33129 ft | 438 kts | 281° |
| 2026-05-06 07:38 | 23.70501 | 42.12484 | 33128 ft | 436 kts | 281° |
| 2026-05-06 07:38 | 23.72322 | 42.06178 | 33120 ft | 438 kts | 281° |
| 2026-05-06 07:39 | 23.74150 | 41.99843 | 33123 ft | 437 kts | 281° |
| 2026-05-06 07:39 | 23.75977 | 41.93519 | 33124 ft | 437 kts | 281° |
| 2026-05-06 07:40 | 23.77788 | 41.87255 | 33120 ft | 437 kts | 281° |
| 2026-05-06 07:40 | 23.79610 | 41.80936 | 33118 ft | 436 kts | 281° |
| 2026-05-06 07:41 | 23.81424 | 41.74630 | 33115 ft | 437 kts | 281° |
| 2026-05-06 07:41 | 23.83235 | 41.68320 | 33116 ft | 436 kts | 281° |
| 2026-05-06 07:42 | 23.85056 | 41.61965 | 33112 ft | 434 kts | 281° |
| 2026-05-06 07:42 | 23.86856 | 41.55669 | 33111 ft | 436 kts | 281° |
| 2026-05-06 07:43 | 23.88643 | 41.49384 | 33109 ft | 435 kts | 281° |
| 2026-05-06 07:43 | 23.90428 | 41.43097 | 33113 ft | 435 kts | 281° |
| 2026-05-06 07:44 | 23.92213 | 41.36797 | 33109 ft | 434 kts | 281° |
| 2026-05-06 07:44 | 23.93999 | 41.30494 | 33118 ft | 434 kts | 280° |
| 2026-05-06 07:45 | 23.95777 | 41.24223 | 33114 ft | 434 kts | 280° |
| 2026-05-06 07:45 | 23.97552 | 41.17946 | 33114 ft | 434 kts | 281° |
| 2026-05-06 07:46 | 23.99329 | 41.11655 | 33110 ft | 434 kts | 280° |
| 2026-05-06 07:46 | 24.01107 | 41.05349 | 33112 ft | 433 kts | 280° |
| 2026-05-06 07:47 | 24.02871 | 40.99078 | 33109 ft | 433 kts | 280° |
| 2026-05-06 07:47 | 24.04633 | 40.92806 | 33108 ft | 433 kts | 280° |
| 2026-05-06 07:48 | 24.06400 | 40.86507 | 33101 ft | 432 kts | 280° |
| 2026-05-06 07:48 | 24.08160 | 40.80221 | 33103 ft | 433 kts | 280° |
| 2026-05-06 07:49 | 24.09912 | 40.73957 | 33097 ft | 430 kts | 280° |
| 2026-05-06 07:49 | 24.11667 | 40.67666 | 33089 ft | 432 kts | 280° |
| 2026-05-06 07:50 | 24.13409 | 40.61411 | 33081 ft | 432 kts | 280° |
| 2026-05-06 07:50 | 24.15155 | 40.55134 | 33081 ft | 431 kts | 280° |
| 2026-05-06 07:51 | 24.17342 | 40.49011 | 33080 ft | 441 kts | 289° |
| 2026-05-06 07:51 | 24.20215 | 40.43027 | 33075 ft | 442 kts | 290° |
| 2026-05-06 07:52 | 24.23075 | 40.37078 | 33073 ft | 441 kts | 290° |
| 2026-05-06 07:52 | 24.25927 | 40.31128 | 33083 ft | 442 kts | 289° |
| 2026-05-06 07:53 | 24.28768 | 40.25195 | 33095 ft | 440 kts | 289° |
| 2026-05-06 07:53 | 24.31599 | 40.19268 | 33085 ft | 441 kts | 289° |
| 2026-05-06 07:54 | 24.34456 | 40.13282 | 33092 ft | 441 kts | 289° |
| 2026-05-06 07:54 | 24.37286 | 40.07341 | 33092 ft | 441 kts | 289° |
| 2026-05-06 07:55 | 24.40127 | 40.01372 | 33085 ft | 440 kts | 289° |
| 2026-05-06 07:55 | 24.42934 | 39.95466 | 33079 ft | 441 kts | 289° |
| 2026-05-06 07:56 | 24.45780 | 39.89473 | 33072 ft | 440 kts | 289° |
| 2026-05-06 07:56 | 24.48594 | 39.83538 | 33053 ft | 439 kts | 289° |
| 2026-05-06 07:57 | 24.51423 | 39.77559 | 33029 ft | 441 kts | 289° |
| 2026-05-06 07:57 | 24.54513 | 39.71734 | 33031 ft | 450 kts | 299° |
| 2026-05-06 07:58 | 24.56665 | 39.69150 | 33034 ft | 462 kts | 309° |
| 2026-05-06 07:58 | 24.59205 | 39.66913 | 33043 ft | 473 kts | 314° |
| 2026-05-06 07:58 | 24.64570 | 39.62650 | 33051 ft | 473 kts | 315° |
| 2026-05-06 07:59 | 24.69899 | 39.58415 | 33078 ft | 474 kts | 315° |
| 2026-05-06 07:59 | 24.75227 | 39.54167 | 33094 ft | 473 kts | 315° |
| 2026-05-06 08:00 | 24.80558 | 39.49904 | 33094 ft | 473 kts | 315° |
| 2026-05-06 08:00 | 24.85866 | 39.45655 | 33083 ft | 472 kts | 314° |
| 2026-05-06 08:01 | 24.91178 | 39.41394 | 33062 ft | 473 kts | 314° |
| 2026-05-06 08:01 | 24.96482 | 39.37137 | 33051 ft | 471 kts | 314° |
| 2026-05-06 08:02 | 25.01806 | 39.32856 | 33061 ft | 474 kts | 314° |
| 2026-05-06 08:02 | 25.07097 | 39.28600 | 33062 ft | 471 kts | 314° |
| 2026-05-06 08:03 | 25.12423 | 39.24308 | 33051 ft | 471 kts | 314° |
| 2026-05-06 08:03 | 25.17714 | 39.20042 | 33062 ft | 468 kts | 314° |
| 2026-05-06 08:04 | 25.22545 | 39.15379 | 33059 ft | 455 kts | 301° |
| 2026-05-06 08:04 | 25.24399 | 39.12636 | 33070 ft | 444 kts | 295° |
| 2026-05-06 08:04 | 25.26085 | 39.09793 | 33065 ft | 442 kts | 294° |
| 2026-05-06 08:05 | 25.29421 | 39.04108 | 33059 ft | 440 kts | 294° |
| 2026-05-06 08:05 | 25.32752 | 38.98414 | 33049 ft | 442 kts | 294° |
| 2026-05-06 08:06 | 25.36076 | 38.92727 | 33054 ft | 440 kts | 294° |
| 2026-05-06 08:06 | 25.39389 | 38.87049 | 33034 ft | 441 kts | 294° |
| 2026-05-06 08:07 | 25.42694 | 38.81378 | 33034 ft | 441 kts | 295° |
| 2026-05-06 08:07 | 25.46003 | 38.75695 | 33027 ft | 440 kts | 294° |
| 2026-05-06 08:08 | 25.49306 | 38.70013 | 33020 ft | 440 kts | 295° |
| 2026-05-06 08:08 | 25.52618 | 38.64309 | 33018 ft | 440 kts | 294° |
| 2026-05-06 08:09 | 25.55922 | 38.58612 | 33021 ft | 440 kts | 294° |
| 2026-05-06 08:09 | 25.59227 | 38.52906 | 33023 ft | 440 kts | 295° |
| 2026-05-06 08:10 | 25.62517 | 38.47220 | 33028 ft | 440 kts | 295° |
| 2026-05-06 08:10 | 25.65818 | 38.41506 | 33029 ft | 440 kts | 295° |
| 2026-05-06 08:11 | 25.69125 | 38.35775 | 33032 ft | 442 kts | 295° |
| 2026-05-06 08:11 | 25.72420 | 38.30061 | 33037 ft | 439 kts | 294° |
| 2026-05-06 08:12 | 25.75682 | 38.24393 | 33029 ft | 439 kts | 295° |
| 2026-05-06 08:12 | 25.78971 | 38.18672 | 33025 ft | 440 kts | 295° |
| 2026-05-06 08:13 | 25.82270 | 38.12928 | 33034 ft | 442 kts | 294° |
| 2026-05-06 08:13 | 25.85566 | 38.07185 | 33038 ft | 440 kts | 295° |
| 2026-05-06 08:14 | 25.88839 | 38.01469 | 33032 ft | 440 kts | 295° |
| 2026-05-06 08:14 | 25.92144 | 37.95693 | 33037 ft | 442 kts | 295° |
| 2026-05-06 08:15 | 25.95426 | 37.89951 | 33036 ft | 439 kts | 295° |
| 2026-05-06 08:15 | 25.98673 | 37.84220 | 33049 ft | 438 kts | 292° |
| 2026-05-06 08:16 | 26.00804 | 37.78022 | 33052 ft | 423 kts | 276° |
| 2026-05-06 08:16 | 26.01748 | 37.71620 | 33065 ft | 420 kts | 274° |
| 2026-05-06 08:17 | 26.02628 | 37.65243 | 33055 ft | 422 kts | 274° |
| 2026-05-06 08:17 | 26.03508 | 37.58791 | 33038 ft | 421 kts | 274° |
| 2026-05-06 08:18 | 26.04379 | 37.52362 | 33028 ft | 421 kts | 274° |
| 2026-05-06 08:18 | 26.05244 | 37.45943 | 33018 ft | 420 kts | 274° |
| 2026-05-06 08:19 | 26.06105 | 37.39508 | 33014 ft | 422 kts | 274° |
| 2026-05-06 08:19 | 26.06963 | 37.33089 | 33019 ft | 419 kts | 274° |
| 2026-05-06 08:20 | 26.07811 | 37.26708 | 33004 ft | 422 kts | 273° |
| 2026-05-06 08:20 | 26.08663 | 37.20284 | 32999 ft | 419 kts | 273° |
| 2026-05-06 08:21 | 26.09510 | 37.13869 | 32992 ft | 421 kts | 274° |
| 2026-05-06 08:21 | 26.10358 | 37.07425 | 32974 ft | 421 kts | 273° |
| 2026-05-06 08:22 | 26.11200 | 37.00999 | 32975 ft | 422 kts | 273° |
| 2026-05-06 08:22 | 26.12041 | 36.94568 | 32967 ft | 420 kts | 274° |
| 2026-05-06 08:23 | 26.12878 | 36.88140 | 32970 ft | 421 kts | 273° |
| 2026-05-06 08:23 | 26.13711 | 36.81711 | 32961 ft | 421 kts | 274° |
| 2026-05-06 08:24 | 26.14538 | 36.75316 | 32963 ft | 421 kts | 274° |
| 2026-05-06 08:24 | 26.15368 | 36.68872 | 32955 ft | 420 kts | 274° |
| 2026-05-06 08:25 | 26.16198 | 36.62403 | 32955 ft | 422 kts | 273° |
| 2026-05-06 08:25 | 26.17022 | 36.55967 | 32951 ft | 421 kts | 273° |
| 2026-05-06 08:26 | 26.18553 | 36.49639 | 32945 ft | 433 kts | 288° |
| 2026-05-06 08:26 | 26.20050 | 36.46698 | 32944 ft | 445 kts | 297° |
| 2026-05-06 08:26 | 26.22013 | 36.44031 | 32946 ft | 453 kts | 305° |
| 2026-05-06 08:27 | 26.26413 | 36.38985 | 32951 ft | 454 kts | 306° |
| 2026-05-06 08:27 | 26.30846 | 36.33910 | 32962 ft | 455 kts | 306° |
| 2026-05-06 08:28 | 26.35210 | 36.28893 | 32972 ft | 452 kts | 306° |
| 2026-05-06 08:28 | 26.39593 | 36.23838 | 32975 ft | 455 kts | 306° |
| 2026-05-06 08:29 | 26.43978 | 36.18773 | 32975 ft | 452 kts | 306° |
| 2026-05-06 08:29 | 26.48342 | 36.13721 | 32973 ft | 454 kts | 306° |
| 2026-05-06 08:30 | 26.52728 | 36.08637 | 32975 ft | 455 kts | 306° |
| 2026-05-06 08:30 | 26.57116 | 36.03548 | 32976 ft | 453 kts | 306° |
| 2026-05-06 08:31 | 26.61502 | 35.98450 | 32973 ft | 455 kts | 306° |
| 2026-05-06 08:31 | 26.65867 | 35.93372 | 32974 ft | 454 kts | 306° |
| 2026-05-06 08:32 | 26.70258 | 35.88258 | 32975 ft | 455 kts | 306° |
| 2026-05-06 08:32 | 26.74628 | 35.83163 | 32975 ft | 454 kts | 306° |
| 2026-05-06 08:33 | 26.79028 | 35.78025 | 32973 ft | 456 kts | 306° |
| 2026-05-06 08:33 | 26.83417 | 35.72898 | 32981 ft | 456 kts | 306° |
| 2026-05-06 08:34 | 26.89967 | 35.65231 | 32976 ft | 457 kts | 306° |
| 2026-05-06 08:35 | 26.94351 | 35.60094 | 32981 ft | 456 kts | 306° |
| 2026-05-06 08:35 | 26.98713 | 35.54975 | 32983 ft | 455 kts | 306° |
| 2026-05-06 08:36 | 27.03092 | 35.49829 | 32987 ft | 457 kts | 306° |
| 2026-05-06 08:36 | 27.07476 | 35.44674 | 32982 ft | 456 kts | 306° |
| 2026-05-06 08:37 | 27.11841 | 35.39533 | 32976 ft | 455 kts | 306° |
| 2026-05-06 08:37 | 27.16230 | 35.34356 | 32983 ft | 456 kts | 306° |
| 2026-05-06 08:38 | 27.20602 | 35.29195 | 32996 ft | 455 kts | 306° |
| 2026-05-06 08:38 | 27.24959 | 35.24044 | 32996 ft | 456 kts | 306° |
| 2026-05-06 08:39 | 27.29320 | 35.18884 | 32989 ft | 454 kts | 306° |
| 2026-05-06 08:39 | 27.33691 | 35.13703 | 32995 ft | 457 kts | 306° |
| 2026-05-06 08:40 | 27.38043 | 35.08541 | 32978 ft | 455 kts | 306° |
| 2026-05-06 08:40 | 27.42418 | 35.03343 | 32983 ft | 458 kts | 306° |
| 2026-05-06 08:41 | 27.46763 | 34.98177 | 32989 ft | 455 kts | 307° |
| 2026-05-06 08:41 | 27.51144 | 34.92958 | 32994 ft | 458 kts | 307° |
| 2026-05-06 08:42 | 27.55735 | 34.87988 | 32992 ft | 461 kts | 310° |
| 2026-05-06 08:42 | 27.60435 | 34.83078 | 32996 ft | 460 kts | 310° |
| 2026-05-06 08:43 | 27.65115 | 34.78157 | 32988 ft | 461 kts | 310° |
| 2026-05-06 08:43 | 27.69766 | 34.73246 | 33001 ft | 459 kts | 310° |
| 2026-05-06 08:44 | 27.74423 | 34.68317 | 32997 ft | 460 kts | 310° |
| 2026-05-06 08:44 | 27.79096 | 34.63359 | 32986 ft | 460 kts | 310° |
| 2026-05-06 08:45 | 27.83734 | 34.58433 | 33003 ft | 459 kts | 310° |
| 2026-05-06 08:45 | 27.88396 | 34.53473 | 32990 ft | 459 kts | 310° |
| 2026-05-06 08:46 | 27.93042 | 34.48522 | 32997 ft | 460 kts | 311° |
| 2026-05-06 08:46 | 27.97699 | 34.43562 | 33005 ft | 462 kts | 311° |
| 2026-05-06 08:47 | 28.02015 | 34.38291 | 33009 ft | 454 kts | 304° |
| 2026-05-06 08:47 | 28.06005 | 34.32772 | 33023 ft | 455 kts | 304° |
| 2026-05-06 08:48 | 28.10004 | 34.27233 | 33032 ft | 453 kts | 303° |
| 2026-05-06 08:48 | 28.13991 | 34.21704 | 33033 ft | 454 kts | 304° |
| 2026-05-06 08:49 | 28.17996 | 34.16145 | 33049 ft | 456 kts | 304° |
| 2026-05-06 08:49 | 28.21981 | 34.10608 | 33063 ft | 453 kts | 304° |
| 2026-05-06 08:50 | 28.25981 | 34.05042 | 33118 ft | 454 kts | 304° |
| 2026-05-06 08:50 | 28.29973 | 33.99481 | 33148 ft | 454 kts | 304° |
| 2026-05-06 08:51 | 28.33947 | 33.93937 | 33132 ft | 455 kts | 304° |
| 2026-05-06 08:51 | 28.37940 | 33.88360 | 33098 ft | 455 kts | 304° |
| 2026-05-06 08:52 | 28.41925 | 33.82787 | 33069 ft | 454 kts | 304° |
| 2026-05-06 08:52 | 28.45917 | 33.77197 | 33072 ft | 455 kts | 304° |
| 2026-05-06 08:53 | 28.49870 | 33.71653 | 33069 ft | 454 kts | 304° |
| 2026-05-06 08:53 | 28.53834 | 33.66089 | 33065 ft | 455 kts | 304° |
| 2026-05-06 08:54 | 28.57823 | 33.60496 | 33063 ft | 453 kts | 304° |
| 2026-05-06 08:54 | 28.61785 | 33.54934 | 33066 ft | 455 kts | 305° |
| 2026-05-06 08:55 | 28.65742 | 33.49365 | 33060 ft | 453 kts | 304° |
| 2026-05-06 08:55 | 28.69708 | 33.43770 | 33058 ft | 453 kts | 305° |
| 2026-05-06 08:56 | 28.73663 | 33.38181 | 33062 ft | 453 kts | 305° |
| 2026-05-06 08:56 | 28.77610 | 33.32598 | 33066 ft | 452 kts | 304° |
| 2026-05-06 08:57 | 28.81520 | 33.27059 | 33064 ft | 452 kts | 304° |
| 2026-05-06 08:57 | 28.85479 | 33.21444 | 33061 ft | 451 kts | 305° |
| 2026-05-06 08:58 | 28.89384 | 33.15897 | 33063 ft | 451 kts | 304° |
| 2026-05-06 08:58 | 28.93307 | 33.10318 | 33065 ft | 451 kts | 305° |
| 2026-05-06 08:59 | 28.97220 | 33.04745 | 33059 ft | 450 kts | 305° |
| 2026-05-06 08:59 | 29.01132 | 32.99166 | 33059 ft | 450 kts | 305° |
| 2026-05-06 09:00 | 29.05047 | 32.93576 | 33058 ft | 450 kts | 304° |
| 2026-05-06 09:00 | 29.08938 | 32.88012 | 33056 ft | 449 kts | 305° |
| 2026-05-06 09:01 | 29.12848 | 32.82414 | 33056 ft | 449 kts | 305° |
| 2026-05-06 09:01 | 29.16729 | 32.76848 | 33060 ft | 449 kts | 305° |
| 2026-05-06 09:02 | 29.20619 | 32.71263 | 33057 ft | 449 kts | 305° |
| 2026-05-06 09:02 | 29.24490 | 32.65700 | 33061 ft | 447 kts | 305° |
| 2026-05-06 09:03 | 29.28368 | 32.60117 | 33066 ft | 449 kts | 305° |
| 2026-05-06 09:03 | 29.32211 | 32.54534 | 33069 ft | 447 kts | 304° |
| 2026-05-06 09:04 | 29.36059 | 32.48925 | 33072 ft | 447 kts | 304° |
| 2026-05-06 09:04 | 29.39886 | 32.43340 | 33075 ft | 448 kts | 304° |
| 2026-05-06 09:05 | 29.43730 | 32.37725 | 33079 ft | 446 kts | 304° |
| 2026-05-06 09:05 | 29.47565 | 32.32116 | 33088 ft | 447 kts | 304° |
| 2026-05-06 09:06 | 29.51364 | 32.26552 | 33085 ft | 446 kts | 304° |
| 2026-05-06 09:06 | 29.55187 | 32.20942 | 33118 ft | 451 kts | 304° |
| 2026-05-06 09:06 | 29.57129 | 32.18091 | 33459 ft | 454 kts | 304° |
| 2026-05-06 09:07 | 29.59069 | 32.15243 | 34123 ft | 448 kts | 304° |
| 2026-05-06 09:07 | 29.60959 | 32.12467 | 34725 ft | 441 kts | 304° |
| 2026-05-06 09:07 | 29.62862 | 32.09667 | 35038 ft | 442 kts | 303° |
| 2026-05-06 09:08 | 29.66656 | 32.04079 | 35098 ft | 442 kts | 303° |
| 2026-05-06 09:08 | 29.70407 | 31.98548 | 35106 ft | 441 kts | 303° |
| 2026-05-06 09:09 | 29.74211 | 31.92930 | 35103 ft | 441 kts | 303° |
| 2026-05-06 09:09 | 29.77999 | 31.87328 | 35110 ft | 440 kts | 303° |
| 2026-05-06 09:10 | 29.81645 | 31.81726 | 35109 ft | 440 kts | 302° |
| 2026-05-06 09:10 | 29.85265 | 31.76063 | 35105 ft | 440 kts | 302° |
| 2026-05-06 09:11 | 29.89092 | 31.70597 | 35107 ft | 443 kts | 312° |
| 2026-05-06 09:11 | 29.94267 | 31.66545 | 35113 ft | 459 kts | 330° |
| 2026-05-06 09:12 | 30.00481 | 31.64594 | 35113 ft | 468 kts | 346° |
| 2026-05-06 09:12 | 30.06925 | 31.63481 | 35112 ft | 471 kts | 346° |
| 2026-05-06 09:13 | 30.13425 | 31.62346 | 35107 ft | 469 kts | 345° |
| 2026-05-06 09:13 | 30.19903 | 31.61198 | 35110 ft | 469 kts | 345° |
| 2026-05-06 09:14 | 30.26317 | 31.60054 | 35097 ft | 468 kts | 345° |
| 2026-05-06 09:14 | 30.32751 | 31.58899 | 35102 ft | 468 kts | 345° |
| 2026-05-06 09:15 | 30.39163 | 31.57746 | 35097 ft | 466 kts | 345° |
| 2026-05-06 09:15 | 30.45675 | 31.56571 | 35099 ft | 467 kts | 345° |
| 2026-05-06 09:16 | 30.52123 | 31.55406 | 35098 ft | 465 kts | 345° |
| 2026-05-06 09:16 | 30.58555 | 31.54242 | 35089 ft | 466 kts | 345° |
| 2026-05-06 09:17 | 30.65013 | 31.53071 | 35090 ft | 465 kts | 345° |
| 2026-05-06 09:17 | 30.71479 | 31.51897 | 35090 ft | 466 kts | 345° |
| 2026-05-06 09:18 | 30.77927 | 31.50726 | 35084 ft | 463 kts | 345° |
| 2026-05-06 09:18 | 30.84335 | 31.49555 | 35085 ft | 465 kts | 345° |
| 2026-05-06 09:19 | 30.90750 | 31.48384 | 35079 ft | 461 kts | 345° |
| 2026-05-06 09:19 | 30.97137 | 31.47215 | 35078 ft | 463 kts | 345° |
| 2026-05-06 09:20 | 31.03580 | 31.46035 | 35077 ft | 460 kts | 345° |
| 2026-05-06 09:20 | 31.09977 | 31.44861 | 35077 ft | 461 kts | 345° |
| 2026-05-06 09:21 | 31.16286 | 31.43703 | 35078 ft | 459 kts | 345° |
| 2026-05-06 09:21 | 31.22649 | 31.42531 | 35079 ft | 461 kts | 345° |
| 2026-05-06 09:22 | 31.28917 | 31.41375 | 35075 ft | 459 kts | 345° |
| 2026-05-06 09:22 | 31.35228 | 31.40206 | 35074 ft | 458 kts | 345° |
| 2026-05-06 09:23 | 31.41547 | 31.39033 | 35074 ft | 459 kts | 345° |
| 2026-05-06 09:23 | 31.47865 | 31.37860 | 35075 ft | 456 kts | 345° |
| 2026-05-06 09:24 | 31.54170 | 31.36687 | 35074 ft | 457 kts | 345° |
| 2026-05-06 09:24 | 31.60494 | 31.35813 | 35073 ft | 459 kts | 349° |
| 2026-05-06 09:25 | 31.66919 | 31.35201 | 35070 ft | 458 kts | 350° |
| 2026-05-06 09:25 | 31.73257 | 31.34572 | 35082 ft | 458 kts | 349° |
| 2026-05-06 09:26 | 31.79603 | 31.33928 | 35087 ft | 458 kts | 349° |
| 2026-05-06 09:26 | 31.85917 | 31.33281 | 35083 ft | 455 kts | 349° |
| 2026-05-06 09:27 | 31.92254 | 31.32618 | 35078 ft | 455 kts | 349° |
| 2026-05-06 09:27 | 31.98574 | 31.31950 | 35075 ft | 455 kts | 349° |
| 2026-05-06 09:28 | 32.04907 | 31.31280 | 35080 ft | 454 kts | 349° |
| 2026-05-06 09:28 | 32.11248 | 31.30605 | 35076 ft | 454 kts | 349° |
| 2026-05-06 09:29 | 32.17542 | 31.29932 | 35085 ft | 454 kts | 349° |
| 2026-05-06 09:29 | 32.23818 | 31.29258 | 35080 ft | 454 kts | 348° |
| 2026-05-06 09:30 | 32.30098 | 31.28582 | 35081 ft | 452 kts | 348° |
| 2026-05-06 09:30 | 32.36383 | 31.27903 | 35078 ft | 453 kts | 348° |
| 2026-05-06 09:31 | 32.42690 | 31.27223 | 35078 ft | 452 kts | 349° |
| 2026-05-06 09:31 | 32.48987 | 31.26542 | 35078 ft | 451 kts | 348° |
| 2026-05-06 09:32 | 32.55246 | 31.25827 | 35073 ft | 448 kts | 345° |
| 2026-05-06 09:32 | 32.61052 | 31.23685 | 35079 ft | 432 kts | 329° |
| 2026-05-06 09:33 | 32.66436 | 31.20568 | 35077 ft | 432 kts | 329° |
| 2026-05-06 09:33 | 32.71851 | 31.17405 | 35077 ft | 432 kts | 329° |
| 2026-05-06 09:34 | 32.77193 | 31.14281 | 35078 ft | 428 kts | 329° |
| 2026-05-06 09:34 | 32.82561 | 31.11136 | 35071 ft | 433 kts | 328° |
| 2026-05-06 09:35 | 32.87938 | 31.07984 | 35082 ft | 428 kts | 329° |
| 2026-05-06 09:35 | 32.93299 | 31.04835 | 35078 ft | 429 kts | 329° |
| 2026-05-06 09:36 | 32.98609 | 31.01713 | 35071 ft | 427 kts | 329° |
| 2026-05-06 09:36 | 33.03962 | 30.98561 | 35066 ft | 426 kts | 329° |
| 2026-05-06 09:37 | 33.09314 | 30.95405 | 35064 ft | 427 kts | 329° |
| 2026-05-06 09:37 | 33.14545 | 30.91970 | 35074 ft | 427 kts | 325° |
| 2026-05-06 09:38 | 33.19639 | 30.88414 | 35070 ft | 424 kts | 325° |
| 2026-05-06 09:38 | 33.24752 | 30.84863 | 35063 ft | 426 kts | 325° |
| 2026-05-06 09:39 | 33.29841 | 30.81336 | 35066 ft | 425 kts | 326° |
| 2026-05-06 09:39 | 33.34974 | 30.77780 | 35058 ft | 425 kts | 325° |
| 2026-05-06 09:40 | 33.40131 | 30.74206 | 35058 ft | 424 kts | 325° |
| 2026-05-06 09:40 | 33.47820 | 30.68869 | 35056 ft | 424 kts | 325° |
| 2026-05-06 09:41 | 33.52939 | 30.65312 | 35044 ft | 423 kts | 325° |
| 2026-05-06 09:41 | 33.58095 | 30.61722 | 35040 ft | 426 kts | 325° |
| 2026-05-06 09:42 | 33.63240 | 30.58138 | 35040 ft | 424 kts | 325° |
| 2026-05-06 09:42 | 33.68375 | 30.54554 | 35042 ft | 424 kts | 325° |
| 2026-05-06 09:43 | 33.73514 | 30.50962 | 35036 ft | 424 kts | 325° |
| 2026-05-06 09:43 | 33.78631 | 30.47381 | 35038 ft | 425 kts | 326° |
| 2026-05-06 09:44 | 33.83737 | 30.43804 | 35033 ft | 423 kts | 325° |
| 2026-05-06 09:44 | 33.88848 | 30.40217 | 35024 ft | 423 kts | 325° |
| 2026-05-06 09:45 | 33.93972 | 30.36616 | 35031 ft | 423 kts | 325° |
| 2026-05-06 09:45 | 33.99083 | 30.33018 | 35036 ft | 426 kts | 325° |
| 2026-05-06 09:46 | 34.04175 | 30.29431 | 35038 ft | 424 kts | 325° |
| 2026-05-06 09:46 | 34.09238 | 30.25857 | 35033 ft | 424 kts | 325° |
| 2026-05-06 09:47 | 34.14306 | 30.22276 | 35044 ft | 423 kts | 325° |
| 2026-05-06 09:47 | 34.19411 | 30.18663 | 35034 ft | 424 kts | 325° |
| 2026-05-06 09:48 | 34.24446 | 30.15095 | 35035 ft | 421 kts | 325° |
| 2026-05-06 09:48 | 34.29523 | 30.11492 | 35031 ft | 423 kts | 325° |
| 2026-05-06 09:49 | 34.34605 | 30.07879 | 35028 ft | 423 kts | 325° |
| 2026-05-06 09:49 | 34.39704 | 30.04251 | 35029 ft | 423 kts | 326° |
| 2026-05-06 09:50 | 34.44785 | 30.00540 | 35020 ft | 419 kts | 320° |
| 2026-05-06 09:50 | 34.49057 | 29.95807 | 35028 ft | 417 kts | 312° |
| 2026-05-06 09:51 | 34.53102 | 29.90840 | 35020 ft | 416 kts | 312° |
| 2026-05-06 09:51 | 34.57169 | 29.85832 | 35026 ft | 417 kts | 312° |
| 2026-05-06 09:52 | 34.61218 | 29.80836 | 35020 ft | 415 kts | 312° |
| 2026-05-06 09:52 | 34.65286 | 29.75806 | 35022 ft | 417 kts | 312° |
| 2026-05-06 09:53 | 34.69351 | 29.70773 | 35022 ft | 416 kts | 313° |
| 2026-05-06 09:53 | 34.73415 | 29.65733 | 35025 ft | 416 kts | 312° |
| 2026-05-06 09:54 | 34.77482 | 29.60681 | 35012 ft | 416 kts | 312° |
| 2026-05-06 09:54 | 34.81576 | 29.55589 | 35020 ft | 416 kts | 313° |
| 2026-05-06 09:55 | 34.85627 | 29.50542 | 35027 ft | 416 kts | 313° |
| 2026-05-06 09:55 | 34.89726 | 29.45428 | 35018 ft | 416 kts | 313° |
| 2026-05-06 09:56 | 34.93763 | 29.40383 | 35012 ft | 415 kts | 313° |
| 2026-05-06 09:56 | 34.97828 | 29.35295 | 35025 ft | 416 kts | 313° |
| 2026-05-06 09:57 | 35.02226 | 29.30760 | 35034 ft | 418 kts | 320° |
| 2026-05-06 09:57 | 35.06912 | 29.26500 | 35027 ft | 417 kts | 320° |
| 2026-05-06 09:58 | 35.11533 | 29.22288 | 35037 ft | 419 kts | 320° |
| 2026-05-06 09:58 | 35.16199 | 29.18026 | 35038 ft | 418 kts | 321° |
| 2026-05-06 09:59 | 35.20875 | 29.13746 | 35036 ft | 418 kts | 321° |
| 2026-05-06 09:59 | 35.25507 | 29.09501 | 35037 ft | 419 kts | 321° |
| 2026-05-06 10:00 | 35.30170 | 29.05219 | 35037 ft | 419 kts | 321° |
| 2026-05-06 10:00 | 35.34862 | 29.00904 | 35032 ft | 418 kts | 321° |
| 2026-05-06 10:01 | 35.39549 | 28.96588 | 35037 ft | 420 kts | 321° |
| 2026-05-06 10:01 | 35.44220 | 28.92279 | 35034 ft | 419 kts | 321° |
| 2026-05-06 10:02 | 35.48914 | 28.87942 | 35033 ft | 420 kts | 321° |
| 2026-05-06 10:02 | 35.53606 | 28.83602 | 35031 ft | 420 kts | 321° |
| 2026-05-06 10:03 | 35.58258 | 28.79293 | 35031 ft | 419 kts | 321° |
| 2026-05-06 10:03 | 35.62922 | 28.74965 | 35029 ft | 420 kts | 321° |
| 2026-05-06 10:04 | 35.67594 | 28.70624 | 35028 ft | 420 kts | 321° |
| 2026-05-06 10:04 | 35.72302 | 28.66242 | 35029 ft | 419 kts | 321° |
| 2026-05-06 10:05 | 35.76989 | 28.61873 | 35025 ft | 420 kts | 321° |
| 2026-05-06 10:05 | 35.81673 | 28.57500 | 35027 ft | 419 kts | 321° |
| 2026-05-06 10:06 | 35.86340 | 28.53137 | 35024 ft | 419 kts | 321° |
| 2026-05-06 10:06 | 35.91028 | 28.48748 | 35025 ft | 418 kts | 321° |
| 2026-05-06 10:07 | 35.95683 | 28.44383 | 35025 ft | 418 kts | 321° |
| 2026-05-06 10:07 | 36.00370 | 28.39981 | 35022 ft | 418 kts | 322° |
| 2026-05-06 10:08 | 36.05013 | 28.35613 | 35019 ft | 419 kts | 322° |
| 2026-05-06 10:08 | 36.09648 | 28.31247 | 35030 ft | 419 kts | 321° |
| 2026-05-06 10:09 | 36.14257 | 28.26897 | 35040 ft | 417 kts | 321° |
| 2026-05-06 10:09 | 36.18868 | 28.22541 | 35037 ft | 418 kts | 321° |
| 2026-05-06 10:10 | 36.23483 | 28.18173 | 35038 ft | 418 kts | 321° |
| 2026-05-06 10:10 | 36.28099 | 28.13798 | 35037 ft | 418 kts | 321° |
| 2026-05-06 10:11 | 36.32730 | 28.09402 | 35035 ft | 417 kts | 322° |
| 2026-05-06 10:11 | 36.37077 | 28.04656 | 35035 ft | 420 kts | 317° |
| 2026-05-06 10:12 | 36.41348 | 27.99726 | 35035 ft | 419 kts | 317° |
| 2026-05-06 10:12 | 36.45582 | 27.94830 | 35032 ft | 418 kts | 317° |
| 2026-05-06 10:13 | 36.49856 | 27.89884 | 35034 ft | 419 kts | 317° |
| 2026-05-06 10:13 | 36.54147 | 27.84910 | 35029 ft | 420 kts | 317° |
| 2026-05-06 10:14 | 36.58424 | 27.79946 | 35034 ft | 420 kts | 317° |
| 2026-05-06 10:14 | 36.62717 | 27.74952 | 35035 ft | 419 kts | 317° |
| 2026-05-06 10:15 | 36.66982 | 27.69985 | 35032 ft | 421 kts | 317° |
| 2026-05-06 10:15 | 36.71295 | 27.64955 | 35033 ft | 420 kts | 317° |
| 2026-05-06 10:16 | 36.75577 | 27.59953 | 35036 ft | 420 kts | 317° |
| 2026-05-06 10:16 | 36.79844 | 27.54960 | 35032 ft | 419 kts | 317° |
| 2026-05-06 10:17 | 36.84127 | 27.49939 | 35040 ft | 420 kts | 317° |
| 2026-05-06 10:17 | 36.88390 | 27.44936 | 35037 ft | 419 kts | 317° |
| 2026-05-06 10:18 | 36.92672 | 27.39901 | 35037 ft | 420 kts | 317° |
| 2026-05-06 10:18 | 36.96928 | 27.34888 | 35040 ft | 418 kts | 317° |
| 2026-05-06 10:19 | 37.01144 | 27.29915 | 35047 ft | 418 kts | 317° |
| 2026-05-06 10:19 | 37.05376 | 27.24914 | 35047 ft | 418 kts | 317° |
| 2026-05-06 10:20 | 37.09608 | 27.19907 | 35044 ft | 418 kts | 317° |
| 2026-05-06 10:20 | 37.13820 | 27.14914 | 35065 ft | 418 kts | 317° |
| 2026-05-06 10:21 | 37.18030 | 27.09916 | 35071 ft | 417 kts | 317° |
| 2026-05-06 10:21 | 37.22257 | 27.04890 | 35069 ft | 418 kts | 317° |
| 2026-05-06 10:22 | 37.26449 | 26.99896 | 35064 ft | 417 kts | 317° |
| 2026-05-06 10:22 | 37.30669 | 26.94861 | 35068 ft | 418 kts | 317° |
| 2026-05-06 10:23 | 37.34876 | 26.89834 | 35068 ft | 418 kts | 317° |
| 2026-05-06 10:23 | 37.39095 | 26.84785 | 35069 ft | 419 kts | 317° |
| 2026-05-06 10:24 | 37.43454 | 26.79896 | 35066 ft | 419 kts | 320° |
| 2026-05-06 10:24 | 37.47903 | 26.75142 | 35067 ft | 419 kts | 320° |
| 2026-05-06 10:25 | 37.52342 | 26.70369 | 35057 ft | 420 kts | 320° |
| 2026-05-06 10:25 | 37.56809 | 26.65544 | 35067 ft | 419 kts | 320° |
| 2026-05-06 10:26 | 37.61216 | 26.60771 | 35062 ft | 420 kts | 320° |
| 2026-05-06 10:26 | 37.65660 | 26.55947 | 35065 ft | 419 kts | 320° |
| 2026-05-06 10:27 | 37.70066 | 26.51157 | 35056 ft | 419 kts | 320° |
| 2026-05-06 10:27 | 37.74503 | 26.46337 | 35059 ft | 420 kts | 320° |
| 2026-05-06 10:28 | 37.78951 | 26.41496 | 35054 ft | 420 kts | 320° |
| 2026-05-06 10:28 | 37.83379 | 26.36671 | 35053 ft | 419 kts | 320° |
| 2026-05-06 10:29 | 37.87803 | 26.31838 | 35057 ft | 420 kts | 320° |
| 2026-05-06 10:29 | 37.92200 | 26.27013 | 35055 ft | 419 kts | 320° |
| 2026-05-06 10:30 | 37.96608 | 26.22167 | 35051 ft | 419 kts | 319° |
| 2026-05-06 10:30 | 38.00992 | 26.17342 | 35053 ft | 419 kts | 320° |
| 2026-05-06 10:31 | 38.05400 | 26.12482 | 35055 ft | 419 kts | 319° |
| 2026-05-06 10:31 | 38.09796 | 26.07626 | 35051 ft | 418 kts | 320° |
| 2026-05-06 10:32 | 38.14183 | 26.02771 | 35061 ft | 419 kts | 319° |
| 2026-05-06 10:32 | 38.18556 | 25.97924 | 35065 ft | 418 kts | 320° |
| 2026-05-06 10:33 | 38.22950 | 25.93046 | 35060 ft | 418 kts | 320° |
| 2026-05-06 10:33 | 38.27630 | 25.88751 | 35059 ft | 418 kts | 329° |
| 2026-05-06 10:34 | 38.32653 | 25.85045 | 35062 ft | 419 kts | 329° |
| 2026-05-06 10:34 | 38.37702 | 25.81316 | 35061 ft | 417 kts | 329° |
| 2026-05-06 10:35 | 38.42691 | 25.77622 | 35060 ft | 419 kts | 329° |
| 2026-05-06 10:35 | 38.47773 | 25.73853 | 35057 ft | 417 kts | 329° |
| 2026-05-06 10:36 | 38.52818 | 25.70105 | 35050 ft | 419 kts | 329° |
| 2026-05-06 10:36 | 38.57867 | 25.66346 | 35051 ft | 417 kts | 329° |
| 2026-05-06 10:37 | 38.62877 | 25.62611 | 35051 ft | 419 kts | 329° |
| 2026-05-06 10:37 | 38.67903 | 25.58857 | 35050 ft | 418 kts | 329° |
| 2026-05-06 10:38 | 38.72969 | 25.55068 | 35047 ft | 419 kts | 329° |
| 2026-05-06 10:38 | 38.77994 | 25.51303 | 35047 ft | 417 kts | 329° |
| 2026-05-06 10:39 | 38.83041 | 25.47515 | 35045 ft | 418 kts | 329° |
| 2026-05-06 10:39 | 38.88035 | 25.43760 | 35047 ft | 419 kts | 329° |
| 2026-05-06 10:40 | 38.93086 | 25.39957 | 35042 ft | 417 kts | 329° |
| 2026-05-06 10:40 | 38.98128 | 25.36154 | 35046 ft | 419 kts | 329° |
| 2026-05-06 10:41 | 39.03168 | 25.32345 | 35048 ft | 417 kts | 329° |
| 2026-05-06 10:41 | 39.08168 | 25.28561 | 35050 ft | 418 kts | 329° |
| 2026-05-06 10:42 | 39.13189 | 25.24755 | 35057 ft | 420 kts | 329° |
| 2026-05-06 10:42 | 39.18178 | 25.20968 | 35057 ft | 419 kts | 329° |
| 2026-05-06 10:43 | 39.23214 | 25.17137 | 35062 ft | 419 kts | 329° |
| 2026-05-06 10:44 | 39.30714 | 25.11420 | 35059 ft | 419 kts | 329° |
| 2026-05-06 10:44 | 39.35738 | 25.07582 | 35055 ft | 420 kts | 329° |
| 2026-05-06 10:45 | 39.40790 | 25.03718 | 35061 ft | 420 kts | 329° |
| 2026-05-06 10:45 | 39.45812 | 24.99869 | 35052 ft | 420 kts | 329° |
| 2026-05-06 10:46 | 39.50827 | 24.96019 | 35058 ft | 421 kts | 329° |
| 2026-05-06 10:46 | 39.55869 | 24.92141 | 35053 ft | 420 kts | 329° |
| 2026-05-06 10:47 | 39.60880 | 24.88281 | 35052 ft | 420 kts | 329° |
| 2026-05-06 10:47 | 39.65936 | 24.84380 | 35050 ft | 420 kts | 329° |
| 2026-05-06 10:48 | 39.70973 | 24.80486 | 35049 ft | 421 kts | 329° |
| 2026-05-06 10:48 | 39.75971 | 24.76616 | 35048 ft | 420 kts | 329° |
| 2026-05-06 10:49 | 39.81002 | 24.72714 | 35047 ft | 420 kts | 329° |
| 2026-05-06 10:49 | 39.86029 | 24.68808 | 35041 ft | 420 kts | 329° |
| 2026-05-06 10:50 | 39.91075 | 24.64881 | 35041 ft | 421 kts | 329° |
| 2026-05-06 10:50 | 39.96068 | 24.60988 | 35038 ft | 420 kts | 329° |
| 2026-05-06 10:51 | 40.01117 | 24.57046 | 35038 ft | 421 kts | 329° |
| 2026-05-06 10:51 | 40.06116 | 24.53134 | 35034 ft | 421 kts | 329° |
| 2026-05-06 10:52 | 40.11166 | 24.49177 | 35042 ft | 420 kts | 329° |
| 2026-05-06 10:52 | 40.16170 | 24.45248 | 35045 ft | 420 kts | 329° |
| 2026-05-06 10:53 | 40.21137 | 24.41342 | 35044 ft | 420 kts | 329° |
| 2026-05-06 10:53 | 40.26143 | 24.37398 | 35047 ft | 420 kts | 329° |
| 2026-05-06 10:54 | 40.31160 | 24.33438 | 35054 ft | 420 kts | 328° |
| 2026-05-06 10:54 | 40.36136 | 24.29505 | 35054 ft | 420 kts | 328° |
| 2026-05-06 10:55 | 40.41130 | 24.25549 | 35048 ft | 419 kts | 328° |
| 2026-05-06 10:55 | 40.46111 | 24.21598 | 35048 ft | 419 kts | 328° |
| 2026-05-06 10:56 | 40.51117 | 24.17619 | 35047 ft | 419 kts | 328° |
| 2026-05-06 10:56 | 40.56095 | 24.13656 | 35048 ft | 420 kts | 328° |
| 2026-05-06 10:57 | 40.61083 | 24.09678 | 35048 ft | 418 kts | 328° |
| 2026-05-06 10:57 | 40.66052 | 24.05708 | 35047 ft | 420 kts | 328° |
| 2026-05-06 10:58 | 40.71067 | 24.01694 | 35047 ft | 419 kts | 328° |
| 2026-05-06 10:58 | 40.76048 | 23.97700 | 35045 ft | 418 kts | 328° |
| 2026-05-06 10:59 | 40.81027 | 23.93702 | 35047 ft | 417 kts | 328° |
| 2026-05-06 10:59 | 40.86005 | 23.89696 | 35044 ft | 418 kts | 328° |
| 2026-05-06 11:00 | 40.90963 | 23.85699 | 35042 ft | 418 kts | 328° |
| 2026-05-06 11:00 | 40.95948 | 23.81673 | 35043 ft | 419 kts | 328° |
| 2026-05-06 11:01 | 41.00910 | 23.77659 | 35041 ft | 417 kts | 328° |
| 2026-05-06 11:01 | 41.05861 | 23.73647 | 35043 ft | 417 kts | 328° |
| 2026-05-06 11:02 | 41.10852 | 23.69595 | 35050 ft | 418 kts | 328° |
| 2026-05-06 11:02 | 41.15807 | 23.65565 | 35069 ft | 420 kts | 328° |
| 2026-05-06 11:03 | 41.20787 | 23.61507 | 35072 ft | 418 kts | 328° |
| 2026-05-06 11:03 | 41.25728 | 23.57474 | 35085 ft | 419 kts | 328° |
| 2026-05-06 11:04 | 41.30694 | 23.53414 | 35083 ft | 420 kts | 328° |
| 2026-05-06 11:04 | 41.35656 | 23.49349 | 35074 ft | 419 kts | 328° |
| 2026-05-06 11:05 | 41.40652 | 23.45249 | 35059 ft | 419 kts | 328° |
| 2026-05-06 11:05 | 41.45875 | 23.41753 | 35059 ft | 421 kts | 334° |
| 2026-05-06 11:06 | 41.51175 | 23.38380 | 35054 ft | 421 kts | 334° |
| 2026-05-06 11:06 | 41.56450 | 23.34976 | 35064 ft | 422 kts | 333° |
| 2026-05-06 11:07 | 41.61693 | 23.31565 | 35072 ft | 421 kts | 333° |
| 2026-05-06 11:07 | 41.66951 | 23.28128 | 35072 ft | 421 kts | 333° |
| 2026-05-06 11:08 | 41.72193 | 23.24691 | 35067 ft | 421 kts | 333° |
| 2026-05-06 11:08 | 41.77456 | 23.21231 | 35074 ft | 421 kts | 333° |
| 2026-05-06 11:09 | 41.82717 | 23.17765 | 35076 ft | 422 kts | 333° |
| 2026-05-06 11:09 | 41.87980 | 23.14291 | 35070 ft | 421 kts | 333° |
| 2026-05-06 11:10 | 41.93261 | 23.10798 | 35074 ft | 423 kts | 333° |
| 2026-05-06 11:10 | 41.98507 | 23.07322 | 35072 ft | 421 kts | 333° |
| 2026-05-06 11:11 | 42.03791 | 23.03813 | 35062 ft | 423 kts | 332° |
| 2026-05-06 11:11 | 42.09073 | 23.00300 | 35062 ft | 422 kts | 333° |
| 2026-05-06 11:12 | 42.14324 | 22.96801 | 35074 ft | 422 kts | 333° |
| 2026-05-06 11:12 | 42.19575 | 22.93295 | 35075 ft | 422 kts | 333° |
| 2026-05-06 11:13 | 42.24842 | 22.89772 | 35074 ft | 423 kts | 332° |
| 2026-05-06 11:13 | 42.30064 | 22.86272 | 35073 ft | 421 kts | 332° |
| 2026-05-06 11:14 | 42.35333 | 22.82735 | 35073 ft | 423 kts | 332° |
| 2026-05-06 11:14 | 42.40564 | 22.79217 | 35073 ft | 421 kts | 333° |
| 2026-05-06 11:15 | 42.45839 | 22.75661 | 35069 ft | 422 kts | 333° |
| 2026-05-06 11:15 | 42.51101 | 22.72109 | 35072 ft | 423 kts | 332° |
| 2026-05-06 11:16 | 42.56347 | 22.68561 | 35072 ft | 422 kts | 332° |
| 2026-05-06 11:16 | 42.61618 | 22.64989 | 35075 ft | 423 kts | 332° |
| 2026-05-06 11:17 | 42.66889 | 22.61410 | 35079 ft | 423 kts | 333° |
| 2026-05-06 11:17 | 42.72138 | 22.57839 | 35084 ft | 423 kts | 332° |
| 2026-05-06 11:18 | 42.77399 | 22.54252 | 35087 ft | 423 kts | 332° |
| 2026-05-06 11:18 | 42.82648 | 22.50667 | 35083 ft | 424 kts | 332° |
| 2026-05-06 11:19 | 42.87537 | 22.46189 | 35086 ft | 423 kts | 322° |
| 2026-05-06 11:19 | 42.92127 | 22.41231 | 35080 ft | 424 kts | 322° |
| 2026-05-06 11:20 | 42.96738 | 22.36239 | 35074 ft | 423 kts | 322° |
| 2026-05-06 11:20 | 43.01362 | 22.31226 | 35074 ft | 424 kts | 321° |
| 2026-05-06 11:21 | 43.05949 | 22.26243 | 35068 ft | 424 kts | 321° |
| 2026-05-06 11:21 | 43.10580 | 22.21202 | 35065 ft | 425 kts | 321° |
| 2026-05-06 11:22 | 43.15185 | 22.16184 | 35065 ft | 425 kts | 321° |
| 2026-05-06 11:22 | 43.19821 | 22.11116 | 35060 ft | 425 kts | 321° |
| 2026-05-06 11:23 | 43.24437 | 22.06062 | 35055 ft | 426 kts | 321° |
| 2026-05-06 11:23 | 43.29044 | 22.01007 | 35046 ft | 425 kts | 321° |
| 2026-05-06 11:24 | 43.33680 | 21.95911 | 35036 ft | 427 kts | 321° |
| 2026-05-06 11:24 | 43.38287 | 21.90836 | 35033 ft | 427 kts | 321° |
| 2026-05-06 11:25 | 43.42903 | 21.85743 | 35039 ft | 426 kts | 321° |
| 2026-05-06 11:25 | 43.47539 | 21.80615 | 35038 ft | 425 kts | 321° |
| 2026-05-06 11:26 | 43.52173 | 21.75480 | 35035 ft | 427 kts | 321° |
| 2026-05-06 11:26 | 43.56775 | 21.70370 | 35039 ft | 426 kts | 320° |
| 2026-05-06 11:27 | 43.61391 | 21.65235 | 35035 ft | 426 kts | 321° |
| 2026-05-06 11:27 | 43.65974 | 21.60125 | 35031 ft | 426 kts | 321° |
| 2026-05-06 11:28 | 43.70609 | 21.54947 | 35032 ft | 426 kts | 321° |
| 2026-05-06 11:28 | 43.75174 | 21.49836 | 35028 ft | 426 kts | 320° |
| 2026-05-06 11:29 | 43.79801 | 21.44647 | 35022 ft | 425 kts | 320° |
| 2026-05-06 11:29 | 43.84380 | 21.39500 | 35022 ft | 426 kts | 320° |
| 2026-05-06 11:30 | 43.88973 | 21.34326 | 35020 ft | 425 kts | 320° |
| 2026-05-06 11:30 | 43.93546 | 21.29165 | 35017 ft | 425 kts | 320° |
| 2026-05-06 11:31 | 43.98116 | 21.23998 | 35015 ft | 426 kts | 320° |
| 2026-05-06 11:31 | 44.02726 | 21.18773 | 35014 ft | 426 kts | 320° |
| 2026-05-06 11:32 | 44.07297 | 21.13582 | 35017 ft | 426 kts | 320° |
| 2026-05-06 11:32 | 44.11863 | 21.08386 | 35024 ft | 423 kts | 320° |
| 2026-05-06 11:33 | 44.16426 | 21.03182 | 35024 ft | 425 kts | 320° |
| 2026-05-06 11:33 | 44.20994 | 20.97962 | 35022 ft | 426 kts | 319° |
| 2026-05-06 11:34 | 44.25568 | 20.92725 | 35020 ft | 427 kts | 319° |
| 2026-05-06 11:34 | 44.30179 | 20.87434 | 35018 ft | 430 kts | 319° |
| 2026-05-06 11:35 | 44.34766 | 20.82160 | 35019 ft | 428 kts | 319° |
| 2026-05-06 11:35 | 44.39339 | 20.76891 | 35017 ft | 428 kts | 319° |
| 2026-05-06 11:36 | 44.43941 | 20.71578 | 35017 ft | 431 kts | 319° |
| 2026-05-06 11:36 | 44.48547 | 20.66247 | 35015 ft | 430 kts | 319° |
| 2026-05-06 11:37 | 44.53179 | 20.60876 | 35011 ft | 431 kts | 319° |
| 2026-05-06 11:37 | 44.57807 | 20.55498 | 35009 ft | 432 kts | 319° |
| 2026-05-06 11:38 | 44.62413 | 20.50135 | 35009 ft | 431 kts | 319° |
| 2026-05-06 11:38 | 44.67022 | 20.44756 | 35004 ft | 432 kts | 319° |
| 2026-05-06 11:39 | 44.71658 | 20.39335 | 35005 ft | 432 kts | 319° |
| 2026-05-06 11:39 | 44.76261 | 20.33939 | 35006 ft | 432 kts | 318° |
| 2026-05-06 11:40 | 44.80861 | 20.28536 | 35008 ft | 431 kts | 318° |
| 2026-05-06 11:40 | 44.85457 | 20.23127 | 35009 ft | 432 kts | 318° |
| 2026-05-06 11:41 | 44.90027 | 20.17735 | 35006 ft | 430 kts | 318° |
| 2026-05-06 11:41 | 44.94608 | 20.12320 | 35004 ft | 432 kts | 318° |
| 2026-05-06 11:42 | 44.99208 | 20.06870 | 35001 ft | 432 kts | 318° |
| 2026-05-06 11:42 | 45.03779 | 20.01443 | 34997 ft | 432 kts | 318° |
| 2026-05-06 11:43 | 45.08389 | 19.95958 | 34991 ft | 431 kts | 318° |
| 2026-05-06 11:43 | 45.12973 | 19.90492 | 34996 ft | 432 kts | 318° |
| 2026-05-06 11:44 | 45.19833 | 19.82290 | 34985 ft | 432 kts | 317° |
| 2026-05-06 11:44 | 45.24433 | 19.76774 | 34982 ft | 433 kts | 317° |
| 2026-05-06 11:45 | 45.28986 | 19.71304 | 34987 ft | 432 kts | 317° |
| 2026-05-06 11:45 | 45.33599 | 19.65748 | 34980 ft | 435 kts | 317° |
| 2026-05-06 11:46 | 45.38169 | 19.60234 | 34981 ft | 433 kts | 317° |
| 2026-05-06 11:46 | 45.42750 | 19.54691 | 34978 ft | 434 kts | 317° |
| 2026-05-06 11:47 | 45.47348 | 19.49119 | 34975 ft | 435 kts | 317° |
| 2026-05-06 11:47 | 45.51957 | 19.43519 | 34971 ft | 434 kts | 317° |
| 2026-05-06 11:48 | 45.56512 | 19.37972 | 34973 ft | 435 kts | 317° |
| 2026-05-06 11:48 | 45.61097 | 19.32376 | 34934 ft | 436 kts | 317° |
| 2026-05-06 11:49 | 45.65693 | 19.26756 | 34978 ft | 434 kts | 317° |
| 2026-05-06 11:49 | 45.70266 | 19.21150 | 34973 ft | 436 kts | 317° |
| 2026-05-06 11:50 | 45.74861 | 19.15505 | 35008 ft | 433 kts | 317° |
| 2026-05-06 11:50 | 45.79408 | 19.09906 | 34971 ft | 434 kts | 316° |
| 2026-05-06 11:51 | 45.83999 | 19.04241 | 34970 ft | 435 kts | 317° |
| 2026-05-06 11:51 | 45.88546 | 18.98617 | 34970 ft | 435 kts | 316° |
| 2026-05-06 11:52 | 45.93152 | 18.92907 | 34968 ft | 435 kts | 316° |
| 2026-05-06 11:52 | 45.97652 | 18.87188 | 34966 ft | 435 kts | 316° |
| 2026-05-06 11:53 | 46.02148 | 18.81427 | 34957 ft | 435 kts | 316° |
| 2026-05-06 11:53 | 46.06675 | 18.75619 | 34961 ft | 436 kts | 315° |
| 2026-05-06 11:54 | 46.11191 | 18.69814 | 34963 ft | 436 kts | 315° |
| 2026-05-06 11:54 | 46.15714 | 18.63988 | 34951 ft | 440 kts | 315° |
| 2026-05-06 11:55 | 46.20250 | 18.58134 | 34953 ft | 437 kts | 315° |
| 2026-05-06 11:55 | 46.24773 | 18.52283 | 34947 ft | 440 kts | 315° |
| 2026-05-06 11:56 | 46.29308 | 18.46403 | 34938 ft | 439 kts | 315° |
| 2026-05-06 11:56 | 46.33860 | 18.40487 | 34941 ft | 440 kts | 315° |
| 2026-05-06 11:57 | 46.38400 | 18.34572 | 34941 ft | 440 kts | 314° |
| 2026-05-06 11:57 | 46.42931 | 18.28656 | 34940 ft | 442 kts | 314° |
| 2026-05-06 11:58 | 46.47490 | 18.22691 | 34942 ft | 440 kts | 314° |
| 2026-05-06 11:58 | 46.52015 | 18.16755 | 34939 ft | 442 kts | 314° |
| 2026-05-06 11:59 | 46.56559 | 18.10779 | 34933 ft | 444 kts | 314° |
| 2026-05-06 11:59 | 46.61136 | 18.04748 | 34930 ft | 442 kts | 314° |
| 2026-05-06 12:00 | 46.65660 | 17.98771 | 34921 ft | 443 kts | 314° |
| 2026-05-06 12:00 | 46.70224 | 17.92726 | 34924 ft | 443 kts | 314° |
| 2026-05-06 12:01 | 46.74764 | 17.86701 | 34932 ft | 443 kts | 314° |
| 2026-05-06 12:01 | 46.79320 | 17.80637 | 34922 ft | 444 kts | 314° |
| 2026-05-06 12:02 | 46.83858 | 17.74584 | 34903 ft | 445 kts | 314° |
| 2026-05-06 12:02 | 46.88392 | 17.68521 | 34903 ft | 445 kts | 314° |
| 2026-05-06 12:03 | 46.92960 | 17.62399 | 34893 ft | 445 kts | 314° |
| 2026-05-06 12:03 | 46.97525 | 17.56267 | 34901 ft | 446 kts | 314° |
| 2026-05-06 12:04 | 47.02064 | 17.50154 | 34879 ft | 446 kts | 314° |
| 2026-05-06 12:04 | 47.06622 | 17.44001 | 34887 ft | 447 kts | 314° |
| 2026-05-06 12:05 | 47.11189 | 17.37821 | 34881 ft | 446 kts | 313° |
| 2026-05-06 12:05 | 47.15726 | 17.31666 | 34884 ft | 447 kts | 313° |
| 2026-05-06 12:06 | 47.20295 | 17.25452 | 34887 ft | 447 kts | 313° |
| 2026-05-06 12:06 | 47.24844 | 17.19251 | 34874 ft | 448 kts | 313° |
| 2026-05-06 12:07 | 47.29404 | 17.13018 | 34868 ft | 448 kts | 313° |
| 2026-05-06 12:07 | 47.33950 | 17.06792 | 34871 ft | 448 kts | 313° |
| 2026-05-06 12:08 | 47.38495 | 17.00549 | 34864 ft | 449 kts | 313° |
| 2026-05-06 12:08 | 47.43048 | 16.94280 | 34865 ft | 449 kts | 313° |
| 2026-05-06 12:09 | 47.47610 | 16.87985 | 34865 ft | 449 kts | 313° |
| 2026-05-06 12:09 | 47.52156 | 16.81694 | 34863 ft | 449 kts | 313° |
| 2026-05-06 12:10 | 47.56715 | 16.75372 | 34857 ft | 449 kts | 313° |
| 2026-05-06 12:10 | 47.61520 | 16.69474 | 34857 ft | 452 kts | 317° |
| 2026-05-06 12:11 | 47.66459 | 16.63670 | 34849 ft | 452 kts | 317° |
| 2026-05-06 12:11 | 47.71363 | 16.57849 | 34846 ft | 452 kts | 317° |
| 2026-05-06 12:12 | 47.76266 | 16.51994 | 34845 ft | 452 kts | 317° |
| 2026-05-06 12:12 | 47.81160 | 16.46123 | 34854 ft | 454 kts | 317° |
| 2026-05-06 12:13 | 47.86021 | 16.40274 | 34850 ft | 451 kts | 316° |
| 2026-05-06 12:13 | 47.90899 | 16.34385 | 34848 ft | 452 kts | 316° |
| 2026-05-06 12:14 | 47.95800 | 16.28451 | 34857 ft | 453 kts | 316° |
| 2026-05-06 12:14 | 48.00653 | 16.22561 | 34850 ft | 454 kts | 316° |
| 2026-05-06 12:15 | 48.05539 | 16.16615 | 34852 ft | 453 kts | 316° |
| 2026-05-06 12:15 | 48.10429 | 16.10648 | 34846 ft | 455 kts | 316° |
| 2026-05-06 12:16 | 48.15288 | 16.04707 | 34844 ft | 455 kts | 316° |
| 2026-05-06 12:16 | 48.20210 | 15.98671 | 34845 ft | 455 kts | 316° |
| 2026-05-06 12:17 | 48.25094 | 15.92666 | 34837 ft | 458 kts | 315° |
| 2026-05-06 12:17 | 48.30018 | 15.86597 | 34837 ft | 457 kts | 315° |
| 2026-05-06 12:18 | 48.34911 | 15.80553 | 34838 ft | 460 kts | 315° |
| 2026-05-06 12:18 | 48.39836 | 15.74449 | 34835 ft | 460 kts | 315° |
| 2026-05-06 12:19 | 48.44723 | 15.68390 | 34843 ft | 458 kts | 315° |
| 2026-05-06 12:19 | 48.49686 | 15.62223 | 34845 ft | 459 kts | 315° |
| 2026-05-06 12:20 | 48.54575 | 15.56100 | 34839 ft | 461 kts | 315° |
| 2026-05-06 12:20 | 48.59484 | 15.49952 | 34841 ft | 460 kts | 315° |
| 2026-05-06 12:21 | 48.64420 | 15.43755 | 34839 ft | 461 kts | 315° |
| 2026-05-06 12:21 | 48.69346 | 15.37556 | 34834 ft | 461 kts | 315° |
| 2026-05-06 12:22 | 48.74266 | 15.31348 | 34843 ft | 461 kts | 314° |
| 2026-05-06 12:22 | 48.79175 | 15.25137 | 34845 ft | 462 kts | 314° |
| 2026-05-06 12:23 | 48.84099 | 15.18889 | 34841 ft | 464 kts | 314° |
| 2026-05-06 12:23 | 48.89036 | 15.12611 | 34839 ft | 464 kts | 314° |
| 2026-05-06 12:24 | 48.93875 | 15.06247 | 34834 ft | 464 kts | 313° |
| 2026-05-06 12:24 | 48.98680 | 14.99789 | 34836 ft | 463 kts | 313° |
| 2026-05-06 12:25 | 49.03510 | 14.93288 | 34835 ft | 464 kts | 313° |
| 2026-05-06 12:25 | 49.08327 | 14.86796 | 34828 ft | 464 kts | 313° |
| 2026-05-06 12:26 | 49.13137 | 14.80299 | 34818 ft | 466 kts | 313° |
| 2026-05-06 12:26 | 49.17988 | 14.73731 | 34811 ft | 465 kts | 313° |
| 2026-05-06 12:27 | 49.22835 | 14.67149 | 34811 ft | 470 kts | 313° |
| 2026-05-06 12:27 | 49.27660 | 14.60584 | 34806 ft | 467 kts | 313° |
| 2026-05-06 12:28 | 49.32509 | 14.53965 | 34806 ft | 468 kts | 313° |
| 2026-05-06 12:28 | 49.37378 | 14.47301 | 34806 ft | 468 kts | 313° |
| 2026-05-06 12:29 | 49.42217 | 14.40660 | 34801 ft | 471 kts | 313° |
| 2026-05-06 12:29 | 49.47106 | 14.33933 | 34800 ft | 470 kts | 312° |
| 2026-05-06 12:30 | 49.51955 | 14.27241 | 34798 ft | 471 kts | 312° |
| 2026-05-06 12:30 | 49.56811 | 14.20520 | 34796 ft | 470 kts | 313° |
| 2026-05-06 12:31 | 49.61669 | 14.13779 | 34796 ft | 471 kts | 313° |
| 2026-05-06 12:31 | 49.66518 | 14.07031 | 34792 ft | 471 kts | 313° |
| 2026-05-06 12:32 | 49.71379 | 14.00247 | 34795 ft | 472 kts | 313° |
| 2026-05-06 12:32 | 49.76230 | 13.93460 | 34792 ft | 470 kts | 313° |
| 2026-05-06 12:33 | 49.81069 | 13.86667 | 34788 ft | 473 kts | 313° |
| 2026-05-06 12:33 | 49.85939 | 13.79813 | 34782 ft | 472 kts | 313° |
| 2026-05-06 12:34 | 49.90813 | 13.72933 | 34785 ft | 474 kts | 313° |
| 2026-05-06 12:34 | 49.95663 | 13.66069 | 34784 ft | 474 kts | 313° |
| 2026-05-06 12:35 | 50.00509 | 13.59191 | 34771 ft | 475 kts | 313° |
| 2026-05-06 12:35 | 50.05376 | 13.52263 | 34785 ft | 473 kts | 313° |
| 2026-05-06 12:36 | 50.10212 | 13.45358 | 34772 ft | 476 kts | 313° |
| 2026-05-06 12:36 | 50.15099 | 13.38361 | 34769 ft | 476 kts | 313° |
| 2026-05-06 12:37 | 50.19932 | 13.31421 | 34772 ft | 476 kts | 312° |
| 2026-05-06 12:37 | 50.24827 | 13.24372 | 34764 ft | 477 kts | 312° |
| 2026-05-06 12:38 | 50.29657 | 13.17396 | 34773 ft | 477 kts | 313° |
| 2026-05-06 12:38 | 50.34535 | 13.10330 | 34767 ft | 478 kts | 313° |
| 2026-05-06 12:39 | 50.39403 | 13.03259 | 34766 ft | 479 kts | 313° |
| 2026-05-06 12:39 | 50.44264 | 12.96176 | 34752 ft | 479 kts | 313° |
| 2026-05-06 12:40 | 50.49211 | 12.89027 | 34760 ft | 480 kts | 316° |
| 2026-05-06 12:40 | 50.54420 | 12.82376 | 34761 ft | 481 kts | 317° |
| 2026-05-06 12:41 | 50.59590 | 12.75770 | 34763 ft | 482 kts | 317° |
| 2026-05-06 12:41 | 50.64771 | 12.69100 | 34752 ft | 483 kts | 317° |
| 2026-05-06 12:42 | 50.69987 | 12.62345 | 34751 ft | 483 kts | 317° |
| 2026-05-06 12:42 | 50.75198 | 12.55571 | 34758 ft | 483 kts | 317° |
| 2026-05-06 12:43 | 50.80380 | 12.48810 | 34753 ft | 483 kts | 317° |
| 2026-05-06 12:43 | 50.85593 | 12.41985 | 34758 ft | 483 kts | 317° |
| 2026-05-06 12:44 | 50.90818 | 12.35124 | 34754 ft | 483 kts | 317° |
| 2026-05-06 12:44 | 50.95969 | 12.28337 | 34756 ft | 483 kts | 317° |
| 2026-05-06 12:45 | 51.01117 | 12.21535 | 34753 ft | 482 kts | 317° |
| 2026-05-06 12:46 | 51.08813 | 12.11324 | 34750 ft | 484 kts | 317° |
| 2026-05-06 12:46 | 51.13952 | 12.04482 | 34745 ft | 485 kts | 317° |
| 2026-05-06 12:47 | 51.19141 | 11.97553 | 34751 ft | 483 kts | 317° |
| 2026-05-06 12:47 | 51.24284 | 11.90662 | 34741 ft | 486 kts | 317° |
| 2026-05-06 12:48 | 51.29406 | 11.83780 | 34746 ft | 485 kts | 317° |
| 2026-05-06 12:48 | 51.34562 | 11.76831 | 34759 ft | 485 kts | 318° |
| 2026-05-06 12:49 | 51.39706 | 11.69878 | 34759 ft | 484 kts | 317° |
| 2026-05-06 12:49 | 51.44835 | 11.62922 | 34752 ft | 487 kts | 318° |
| 2026-05-06 12:50 | 51.49987 | 11.55915 | 34760 ft | 487 kts | 318° |
| 2026-05-06 12:50 | 51.55143 | 11.48882 | 34753 ft | 487 kts | 318° |
| 2026-05-06 12:51 | 51.60280 | 11.41851 | 34763 ft | 487 kts | 318° |
| 2026-05-06 12:51 | 51.65441 | 11.34767 | 34751 ft | 488 kts | 317° |
| 2026-05-06 12:52 | 51.70618 | 11.27638 | 34786 ft | 488 kts | 318° |
| 2026-05-06 12:52 | 51.75755 | 11.20543 | 34785 ft | 489 kts | 318° |
| 2026-05-06 12:53 | 51.80938 | 11.13362 | 34782 ft | 489 kts | 318° |
| 2026-05-06 12:53 | 51.86483 | 11.07110 | 34758 ft | 492 kts | 334° |
| 2026-05-06 12:54 | 51.92948 | 11.03796 | 34759 ft | 492 kts | 352° |
| 2026-05-06 12:54 | 51.99737 | 11.02402 | 34770 ft | 489 kts | 354° |
| 2026-05-06 12:55 | 52.06419 | 11.01051 | 34700 ft | 486 kts | 354° |
| 2026-05-06 12:55 | 52.09758 | 11.00360 | 34460 ft | 486 kts | 354° |
| 2026-05-06 12:55 | 52.13120 | 10.99657 | 34073 ft | 489 kts | 354° |
| 2026-05-06 12:55 | 52.16483 | 10.98948 | 33781 ft | 490 kts | 354° |
| 2026-05-06 12:56 | 52.19867 | 10.98229 | 33556 ft | 489 kts | 354° |
| 2026-05-06 12:56 | 52.23209 | 10.97516 | 33338 ft | 488 kts | 354° |
| 2026-05-06 12:56 | 52.26603 | 10.96788 | 33089 ft | 488 kts | 354° |
| 2026-05-06 12:56 | 52.29956 | 10.96068 | 32777 ft | 489 kts | 354° |
| 2026-05-06 12:57 | 52.33317 | 10.95343 | 32473 ft | 490 kts | 354° |
| 2026-05-06 12:57 | 52.36706 | 10.94610 | 32264 ft | 490 kts | 354° |
| 2026-05-06 12:57 | 52.40049 | 10.93886 | 32049 ft | 489 kts | 354° |
| 2026-05-06 12:57 | 52.43409 | 10.93156 | 31821 ft | 489 kts | 354° |
| 2026-05-06 12:58 | 52.46777 | 10.92423 | 31568 ft | 489 kts | 354° |
| 2026-05-06 12:58 | 52.50109 | 10.91696 | 31004 ft | 486 kts | 354° |
| 2026-05-06 12:58 | 52.53471 | 10.90962 | 30298 ft | 482 kts | 354° |
| 2026-05-06 12:58 | 52.56774 | 10.90239 | 29811 ft | 475 kts | 354° |
| 2026-05-06 12:59 | 52.60000 | 10.89532 | 29326 ft | 468 kts | 354° |
| 2026-05-06 12:59 | 52.63217 | 10.88826 | 28801 ft | 462 kts | 353° |
| 2026-05-06 12:59 | 52.66383 | 10.88130 | 28287 ft | 458 kts | 353° |
| 2026-05-06 12:59 | 52.69540 | 10.87436 | 27779 ft | 474 kts | 353° |
| 2026-05-06 13:00 | 52.72825 | 10.86712 | 27225 ft | 475 kts | 353° |
| 2026-05-06 13:00 | 52.76079 | 10.85994 | 26675 ft | 470 kts | 353° |
| 2026-05-06 13:00 | 52.79261 | 10.85290 | 26139 ft | 463 kts | 353° |
| 2026-05-06 13:00 | 52.82455 | 10.84583 | 25615 ft | 457 kts | 353° |
| 2026-05-06 13:01 | 52.85564 | 10.83915 | 24979 ft | 454 kts | 353° |
| 2026-05-06 13:01 | 52.88700 | 10.83282 | 24102 ft | 456 kts | 353° |
| 2026-05-06 13:01 | 52.91869 | 10.82644 | 23433 ft | 454 kts | 353° |
| 2026-05-06 13:01 | 52.95000 | 10.82011 | 22904 ft | 448 kts | 353° |
| 2026-05-06 13:02 | 52.98069 | 10.81389 | 22387 ft | 443 kts | 353° |
| 2026-05-06 13:02 | 53.01091 | 10.80775 | 21888 ft | 438 kts | 353° |
| 2026-05-06 13:02 | 53.04060 | 10.80169 | 21380 ft | 433 kts | 353° |
| 2026-05-06 13:02 | 53.07072 | 10.79553 | 20854 ft | 428 kts | 353° |
| 2026-05-06 13:03 | 53.09991 | 10.78956 | 20346 ft | 424 kts | 353° |
| 2026-05-06 13:03 | 53.12933 | 10.78353 | 19818 ft | 419 kts | 353° |
| 2026-05-06 13:03 | 53.15785 | 10.77767 | 19302 ft | 415 kts | 353° |
| 2026-05-06 13:03 | 53.18622 | 10.77183 | 18788 ft | 411 kts | 353° |
| 2026-05-06 13:04 | 53.21439 | 10.76603 | 18286 ft | 407 kts | 353° |
| 2026-05-06 13:04 | 53.24239 | 10.76025 | 17764 ft | 403 kts | 353° |
| 2026-05-06 13:04 | 53.26998 | 10.75455 | 17262 ft | 399 kts | 353° |
| 2026-05-06 13:04 | 53.29713 | 10.74894 | 16749 ft | 395 kts | 353° |
| 2026-05-06 13:05 | 53.32448 | 10.74327 | 16223 ft | 392 kts | 353° |
| 2026-05-06 13:05 | 53.35140 | 10.73768 | 15721 ft | 388 kts | 353° |
| 2026-05-06 13:05 | 53.37780 | 10.73220 | 15205 ft | 385 kts | 353° |
| 2026-05-06 13:05 | 53.40404 | 10.72674 | 14701 ft | 381 kts | 353° |
| 2026-05-06 13:06 | 53.43045 | 10.72125 | 14207 ft | 377 kts | 353° |
| 2026-05-06 13:06 | 53.45617 | 10.71589 | 13712 ft | 373 kts | 353° |
| 2026-05-06 13:06 | 53.48191 | 10.71051 | 13280 ft | 367 kts | 353° |
| 2026-05-06 13:06 | 53.50680 | 10.70532 | 12823 ft | 363 kts | 353° |
| 2026-05-06 13:07 | 53.53177 | 10.70006 | 12395 ft | 358 kts | 352° |
| 2026-05-06 13:07 | 53.55563 | 10.68940 | 11935 ft | 353 kts | 337° |
| 2026-05-06 13:07 | 53.57650 | 10.66893 | 11457 ft | 350 kts | 322° |
| 2026-05-06 13:07 | 53.59349 | 10.63975 | 10981 ft | 347 kts | 307° |
| 2026-05-06 13:08 | 53.60520 | 10.60487 | 10846 ft | 351 kts | 297° |
| 2026-05-06 13:08 | 53.61522 | 10.56731 | 10828 ft | 346 kts | 287° |
| 2026-05-06 13:08 | 53.61830 | 10.52863 | 10822 ft | 328 kts | 267° |
| 2026-05-06 13:08 | 53.61407 | 10.49181 | 10822 ft | 311 kts | 256° |
| 2026-05-06 13:09 | 53.60818 | 10.45682 | 10517 ft | 307 kts | 255° |
| 2026-05-06 13:09 | 53.60220 | 10.42245 | 10146 ft | 305 kts | 255° |
| 2026-05-06 13:09 | 53.59624 | 10.38867 | 9776 ft | 303 kts | 255° |
| 2026-05-06 13:09 | 53.59031 | 10.35494 | 9401 ft | 301 kts | 255° |
| 2026-05-06 13:10 | 53.58440 | 10.32114 | 9014 ft | 299 kts | 254° |
| 2026-05-06 13:10 | 53.57863 | 10.28799 | 8854 ft | 289 kts | 254° |
| 2026-05-06 13:10 | 53.57314 | 10.25652 | 8837 ft | 279 kts | 254° |
| 2026-05-06 13:10 | 53.56773 | 10.22548 | 8841 ft | 276 kts | 254° |
| 2026-05-06 13:11 | 53.56228 | 10.19432 | 8849 ft | 278 kts | 254° |
| 2026-05-06 13:11 | 53.55683 | 10.16313 | 8839 ft | 277 kts | 254° |
| 2026-05-06 13:11 | 53.55140 | 10.13214 | 8846 ft | 279 kts | 254° |
| 2026-05-06 13:11 | 53.54592 | 10.10089 | 8844 ft | 277 kts | 254° |
| 2026-05-06 13:12 | 53.54047 | 10.06985 | 8845 ft | 278 kts | 254° |
| 2026-05-06 13:12 | 53.53499 | 10.03878 | 8839 ft | 279 kts | 252° |
| 2026-05-06 13:12 | 53.52609 | 10.00976 | 8730 ft | 282 kts | 236° |
| 2026-05-06 13:12 | 53.51479 | 9.98285 | 8366 ft | 283 kts | 234° |
| 2026-05-06 13:13 | 53.50329 | 9.95602 | 7989 ft | 283 kts | 234° |
| 2026-05-06 13:13 | 53.49189 | 9.92936 | 7612 ft | 284 kts | 234° |
| 2026-05-06 13:13 | 53.48036 | 9.90218 | 7230 ft | 285 kts | 234° |
| 2026-05-06 13:13 | 53.46898 | 9.87515 | 6851 ft | 286 kts | 234° |
| 2026-05-06 13:14 | 53.45752 | 9.84794 | 6469 ft | 287 kts | 234° |
| 2026-05-06 13:14 | 53.44611 | 9.82068 | 6089 ft | 287 kts | 234° |
| 2026-05-06 13:14 | 53.43460 | 9.79312 | 5706 ft | 288 kts | 234° |
| 2026-05-06 13:14 | 53.42694 | 9.77489 | 5454 ft | 289 kts | 234° |
| 2026-05-06 13:15 | 53.41262 | 9.73687 | 4933 ft | 289 kts | 250° |
| 2026-05-06 13:15 | 53.40957 | 9.70416 | 4541 ft | 287 kts | 277° |
| 2026-05-06 13:15 | 53.41534 | 9.67276 | 4143 ft | 281 kts | 306° |
| 2026-05-06 13:15 | 53.42838 | 9.64981 | 3731 ft | 272 kts | 333° |
| 2026-05-06 13:16 | 53.44563 | 9.63984 | 3322 ft | 260 kts | 1° |
| 2026-05-06 13:16 | 53.46290 | 9.64462 | 2975 ft | 248 kts | 29° |
| 2026-05-06 13:16 | 53.47538 | 9.66237 | 2936 ft | 228 kts | 59° |
| 2026-05-06 13:16 | 53.48249 | 9.68500 | 2945 ft | 213 kts | 62° |
| 2026-05-06 13:17 | 53.49012 | 9.70557 | 2954 ft | 205 kts | 55° |
| 2026-05-06 13:17 | 53.49875 | 9.72443 | 2970 ft | 203 kts | 52° |
| 2026-05-06 13:17 | 53.50760 | 9.74226 | 2957 ft | 197 kts | 51° |
| 2026-05-06 13:17 | 53.51645 | 9.75971 | 2956 ft | 194 kts | 51° |
| 2026-05-06 13:18 | 53.52514 | 9.77690 | 2955 ft | 193 kts | 51° |
| 2026-05-06 13:18 | 53.53391 | 9.79451 | 2744 ft | 196 kts | 51° |
| 2026-05-06 13:18 | 53.54256 | 9.81170 | 2497 ft | 190 kts | 51° |
| 2026-05-06 13:18 | 53.55076 | 9.82803 | 2251 ft | 175 kts | 51° |
| 2026-05-06 13:19 | 53.55842 | 9.84337 | 2025 ft | 169 kts | 52° |
| 2026-05-06 13:19 | 53.56595 | 9.85854 | 1799 ft | 167 kts | 51° |
| 2026-05-06 13:19 | 53.57303 | 9.87280 | 1577 ft | 155 kts | 51° |
| 2026-05-06 13:19 | 53.57981 | 9.88637 | 1371 ft | 150 kts | 51° |
| 2026-05-06 13:20 | 53.58651 | 9.89987 | 1158 ft | 151 kts | 51° |
| 2026-05-06 13:20 | 53.59313 | 9.91321 | 956 ft | 144 kts | 50° |
| 2026-05-06 13:20 | 53.59946 | 9.92593 | 759 ft | 143 kts | 50° |
| 2026-05-06 13:20 | 53.60585 | 9.93880 | 557 ft | 143 kts | 50° |
| 2026-05-06 13:21 | 53.61230 | 9.95184 | 351 ft | 146 kts | 49° |
| 2026-05-06 13:21 | 53.61890 | 9.96507 | 149 ft | 149 kts | 50° |
| 2026-05-06 13:21 | 53.62532 | 9.97801 | 68 ft | 132 kts | 51° |
| 2026-05-06 13:21 | 53.62995 | 9.98738 | 68 ft | 65 kts | 50° |
| 2026-05-06 13:22 | 53.63184 | 9.99114 | 68 ft | 29 kts | 51° |
| 2026-05-06 13:22 | 53.63259 | 9.99277 | 68 ft | 5 kts | 57° |
| 2026-05-06 13:22 | 53.63279 | 9.99351 | 68 ft | 9 kts | 71° |
| 2026-05-06 13:22 | 53.63290 | 9.99455 | 68 ft | 10 kts | 88° |
| 2026-05-06 13:23 | 53.63284 | 9.99608 | 68 ft | 13 kts | 97° |
| 2026-05-06 13:23 | 53.63245 | 9.99740 | 68 ft | 12 kts | 140° |
| 2026-05-06 13:23 | 53.63171 | 9.99810 | 68 ft | 11 kts | 153° |
| 2026-05-06 13:23 | 53.63099 | 9.99873 | 68 ft | 11 kts | 153° |
| 2026-05-06 13:24 | 53.63029 | 9.99932 | 68 ft | 10 kts | 154° |
| 2026-05-06 13:24 | 53.62969 | 9.99990 | 68 ft | 9 kts | 131° |
| 2026-05-06 13:24 | 53.62965 | 10.00111 | 68 ft | 9 kts | 46° |
| 2026-05-06 13:24 | 53.62984 | 10.00135 | 68 ft | 1 kts | 49° |
| 2026-05-06 13:25 | 53.62986 | 10.00150 | 68 ft | 2 kts | 84° |
| 2026-05-06 13:25 | 53.62977 | 10.00195 | 68 ft | 6 kts | 120° |
| 2026-05-06 13:25 | 53.62959 | 10.00245 | 68 ft | 3 kts | 122° |
| 2026-05-06 13:25 | 53.62952 | 10.00264 | 68 ft | 0 kts | 122° |
| 2026-05-06 13:26 | 53.62949 | 10.00271 | 68 ft | 0 kts | 121° |